<?xml version="1.0" encoding="UTF-8" standalone="no" ?>
<gpx xmlns="http://www.topografix.com/GPX/1/1" xmlns:xsi="http://www.w3.org/2001/XMLSchema-instance" xsi:schemaLocation="http://www.topografix.com/GPX/1/1 http://www.topografix.com/GPX/1/1/gpx.xsd" version="1.1" creator="VisuGPX - https://www.visugpx.com">
  <metadata>
    <name>Base VTT-FFCT Royans-Vercors - Circuit N°10 : Le Tour des Claveyrons - 25634 - UtagawaVTT.com</name>
    <desc><![CDATA[Tour des Claveyrons - Ch. en Vercors]]></desc>
  </metadata>
  <trk>
    <name><![CDATA[Base VTT-FFCT Royans-Vercors - Circuit N°10 : Le Tour des Claveyrons - 25634 - UtagawaVTT.com]]></name>
    <trkseg>
      <trkpt lat="44.96765" lon="5.41538">
        <ele>883.094055</ele>
        <time>2019-10-15T10:15:11Z</time>
      </trkpt>
      <trkpt lat="44.96737" lon="5.4161">
        <ele>884.344788</ele>
        <time>2019-10-15T10:15:25Z</time>
      </trkpt>
      <trkpt lat="44.96736" lon="5.41619">
        <ele>884.708984</ele>
        <time>2019-10-15T10:15:26Z</time>
      </trkpt>
      <trkpt lat="44.96742" lon="5.41626">
        <ele>885.297363</ele>
        <time>2019-10-15T10:15:28Z</time>
      </trkpt>
      <trkpt lat="44.96774" lon="5.41596">
        <ele>885.745911</ele>
        <time>2019-10-15T10:15:37Z</time>
      </trkpt>
      <trkpt lat="44.96786" lon="5.41592">
        <ele>886.387512</ele>
        <time>2019-10-15T10:15:40Z</time>
      </trkpt>
      <trkpt lat="44.96801" lon="5.41596">
        <ele>887.492493</ele>
        <time>2019-10-15T10:15:43Z</time>
      </trkpt>
      <trkpt lat="44.96808" lon="5.41602">
        <ele>888.150024</ele>
        <time>2019-10-15T10:15:45Z</time>
      </trkpt>
      <trkpt lat="44.96823" lon="5.41563">
        <ele>888.210022</ele>
        <time>2019-10-15T10:15:53Z</time>
      </trkpt>
      <trkpt lat="44.96855" lon="5.41544">
        <ele>891.01001</ele>
        <time>2019-10-15T10:16:01Z</time>
      </trkpt>
      <trkpt lat="44.96888" lon="5.41543">
        <ele>893.71814</ele>
        <time>2019-10-15T10:16:08Z</time>
      </trkpt>
      <trkpt lat="44.96973" lon="5.41585">
        <ele>899.674011</ele>
        <time>2019-10-15T10:16:30Z</time>
      </trkpt>
      <trkpt lat="44.97016" lon="5.41597">
        <ele>903.647522</ele>
        <time>2019-10-15T10:16:40Z</time>
      </trkpt>
      <trkpt lat="44.97087" lon="5.41589">
        <ele>908.815002</ele>
        <time>2019-10-15T10:16:56Z</time>
      </trkpt>
      <trkpt lat="44.97123" lon="5.41579">
        <ele>909.918762</ele>
        <time>2019-10-15T10:17:05Z</time>
      </trkpt>
      <trkpt lat="44.97151" lon="5.41584">
        <ele>910.933411</ele>
        <time>2019-10-15T10:17:12Z</time>
      </trkpt>
      <trkpt lat="44.97187" lon="5.41598">
        <ele>912.541138</ele>
        <time>2019-10-15T10:17:20Z</time>
      </trkpt>
      <trkpt lat="44.9722" lon="5.41624">
        <ele>915.970947</ele>
        <time>2019-10-15T10:17:29Z</time>
      </trkpt>
      <trkpt lat="44.97278" lon="5.4169">
        <ele>923.758179</ele>
        <time>2019-10-15T10:17:47Z</time>
      </trkpt>
      <trkpt lat="44.97305" lon="5.41715">
        <ele>926.658325</ele>
        <time>2019-10-15T10:17:54Z</time>
      </trkpt>
      <trkpt lat="44.97307" lon="5.41723">
        <ele>927.384338</ele>
        <time>2019-10-15T10:17:55Z</time>
      </trkpt>
      <trkpt lat="44.97287" lon="5.41806">
        <ele>932.730896</ele>
        <time>2019-10-15T10:18:10Z</time>
      </trkpt>
      <trkpt lat="44.9728" lon="5.41918">
        <ele>938.979492</ele>
        <time>2019-10-15T10:18:29Z</time>
      </trkpt>
      <trkpt lat="44.97272" lon="5.41963">
        <ele>941.548889</ele>
        <time>2019-10-15T10:18:36Z</time>
      </trkpt>
      <trkpt lat="44.97256" lon="5.41995">
        <ele>941.438721</ele>
        <time>2019-10-15T10:18:43Z</time>
      </trkpt>
      <trkpt lat="44.9725" lon="5.42014">
        <ele>941.630005</ele>
        <time>2019-10-15T10:18:46Z</time>
      </trkpt>
      <trkpt lat="44.97243" lon="5.42055">
        <ele>942.694885</ele>
        <time>2019-10-15T10:18:53Z</time>
      </trkpt>
      <trkpt lat="44.97233" lon="5.42082">
        <ele>943.617065</ele>
        <time>2019-10-15T10:18:58Z</time>
      </trkpt>
      <trkpt lat="44.97234" lon="5.42089">
        <ele>944.068604</ele>
        <time>2019-10-15T10:18:59Z</time>
      </trkpt>
      <trkpt lat="44.97262" lon="5.42092">
        <ele>945.001709</ele>
        <time>2019-10-15T10:19:06Z</time>
      </trkpt>
      <trkpt lat="44.9729" lon="5.42079">
        <ele>949.888428</ele>
        <time>2019-10-15T10:19:13Z</time>
      </trkpt>
      <trkpt lat="44.97311" lon="5.42078">
        <ele>953.339355</ele>
        <time>2019-10-15T10:19:18Z</time>
      </trkpt>
      <trkpt lat="44.97316" lon="5.42074">
        <ele>954.192078</ele>
        <time>2019-10-15T10:19:19Z</time>
      </trkpt>
      <trkpt lat="44.97361" lon="5.42072">
        <ele>959.473755</ele>
        <time>2019-10-15T10:19:29Z</time>
      </trkpt>
      <trkpt lat="44.97366" lon="5.42076">
        <ele>959.527466</ele>
        <time>2019-10-15T10:19:31Z</time>
      </trkpt>
      <trkpt lat="44.97419" lon="5.4208">
        <ele>960.893982</ele>
        <time>2019-10-15T10:19:43Z</time>
      </trkpt>
      <trkpt lat="44.97454" lon="5.42072">
        <ele>961.23584</ele>
        <time>2019-10-15T10:19:52Z</time>
      </trkpt>
      <trkpt lat="44.9752" lon="5.42115">
        <ele>961.75238</ele>
        <time>2019-10-15T10:20:09Z</time>
      </trkpt>
      <trkpt lat="44.97584" lon="5.4215">
        <ele>960.491882</ele>
        <time>2019-10-15T10:20:25Z</time>
      </trkpt>
      <trkpt lat="44.97696" lon="5.42188">
        <ele>959.689514</ele>
        <time>2019-10-15T10:20:52Z</time>
      </trkpt>
      <trkpt lat="44.97753" lon="5.42235">
        <ele>948.297241</ele>
        <time>2019-10-15T10:21:07Z</time>
      </trkpt>
      <trkpt lat="44.97765" lon="5.42249">
        <ele>945.308838</ele>
        <time>2019-10-15T10:21:11Z</time>
      </trkpt>
      <trkpt lat="44.97797" lon="5.42262">
        <ele>939.450623</ele>
        <time>2019-10-15T10:21:18Z</time>
      </trkpt>
      <trkpt lat="44.97782" lon="5.42278">
        <ele>939.325012</ele>
        <time>2019-10-15T10:21:23Z</time>
      </trkpt>
      <trkpt lat="44.97762" lon="5.42315">
        <ele>934.386963</ele>
        <time>2019-10-15T10:21:31Z</time>
      </trkpt>
      <trkpt lat="44.97763" lon="5.42327">
        <ele>932.137268</ele>
        <time>2019-10-15T10:21:33Z</time>
      </trkpt>
      <trkpt lat="44.97788" lon="5.4235">
        <ele>927.435974</ele>
        <time>2019-10-15T10:21:40Z</time>
      </trkpt>
      <trkpt lat="44.97839" lon="5.42454">
        <ele>908.619995</ele>
        <time>2019-10-15T10:22:00Z</time>
      </trkpt>
      <trkpt lat="44.97851" lon="5.42494">
        <ele>903.990662</ele>
        <time>2019-10-15T10:22:08Z</time>
      </trkpt>
      <trkpt lat="44.97866" lon="5.42529">
        <ele>901.443604</ele>
        <time>2019-10-15T10:22:14Z</time>
      </trkpt>
      <trkpt lat="44.97887" lon="5.42593">
        <ele>897.029236</ele>
        <time>2019-10-15T10:22:26Z</time>
      </trkpt>
      <trkpt lat="44.97894" lon="5.42645">
        <ele>893.953247</ele>
        <time>2019-10-15T10:22:35Z</time>
      </trkpt>
      <trkpt lat="44.97891" lon="5.42663">
        <ele>895.136108</ele>
        <time>2019-10-15T10:22:38Z</time>
      </trkpt>
      <trkpt lat="44.97877" lon="5.42673">
        <ele>896.579468</ele>
        <time>2019-10-15T10:22:42Z</time>
      </trkpt>
      <trkpt lat="44.97845" lon="5.42687">
        <ele>895.909973</ele>
        <time>2019-10-15T10:22:49Z</time>
      </trkpt>
      <trkpt lat="44.97769" lon="5.42697">
        <ele>886.4328</ele>
        <time>2019-10-15T10:23:07Z</time>
      </trkpt>
      <trkpt lat="44.97758" lon="5.42704">
        <ele>884.839539</ele>
        <time>2019-10-15T10:23:10Z</time>
      </trkpt>
      <trkpt lat="44.97752" lon="5.42716">
        <ele>886.597412</ele>
        <time>2019-10-15T10:23:12Z</time>
      </trkpt>
      <trkpt lat="44.97742" lon="5.42724">
        <ele>887.345276</ele>
        <time>2019-10-15T10:23:15Z</time>
      </trkpt>
      <trkpt lat="44.97723" lon="5.42727">
        <ele>887.097717</ele>
        <time>2019-10-15T10:23:20Z</time>
      </trkpt>
      <trkpt lat="44.977" lon="5.42719">
        <ele>884.771057</ele>
        <time>2019-10-15T10:23:25Z</time>
      </trkpt>
      <trkpt lat="44.97675" lon="5.42723">
        <ele>884.661255</ele>
        <time>2019-10-15T10:23:31Z</time>
      </trkpt>
      <trkpt lat="44.97606" lon="5.42763">
        <ele>885.84491</ele>
        <time>2019-10-15T10:23:48Z</time>
      </trkpt>
      <trkpt lat="44.97557" lon="5.42774">
        <ele>883.122375</ele>
        <time>2019-10-15T10:24:00Z</time>
      </trkpt>
      <trkpt lat="44.97528" lon="5.42792">
        <ele>883.497803</ele>
        <time>2019-10-15T10:24:07Z</time>
      </trkpt>
      <trkpt lat="44.97499" lon="5.42799">
        <ele>882.534973</ele>
        <time>2019-10-15T10:24:14Z</time>
      </trkpt>
      <trkpt lat="44.97426" lon="5.42793">
        <ele>879.044983</ele>
        <time>2019-10-15T10:24:31Z</time>
      </trkpt>
      <trkpt lat="44.97404" lon="5.42783">
        <ele>876.626465</ele>
        <time>2019-10-15T10:24:37Z</time>
      </trkpt>
      <trkpt lat="44.97384" lon="5.42782">
        <ele>875.24292</ele>
        <time>2019-10-15T10:24:41Z</time>
      </trkpt>
      <trkpt lat="44.97359" lon="5.42787">
        <ele>873.877502</ele>
        <time>2019-10-15T10:24:47Z</time>
      </trkpt>
      <trkpt lat="44.97302" lon="5.4282">
        <ele>873.727783</ele>
        <time>2019-10-15T10:25:02Z</time>
      </trkpt>
      <trkpt lat="44.97255" lon="5.42818">
        <ele>873.110962</ele>
        <time>2019-10-15T10:25:13Z</time>
      </trkpt>
      <trkpt lat="44.97188" lon="5.42831">
        <ele>876.595703</ele>
        <time>2019-10-15T10:25:29Z</time>
      </trkpt>
      <trkpt lat="44.9717" lon="5.42847">
        <ele>878.540955</ele>
        <time>2019-10-15T10:25:33Z</time>
      </trkpt>
      <trkpt lat="44.97133" lon="5.42906">
        <ele>882.051636</ele>
        <time>2019-10-15T10:25:46Z</time>
      </trkpt>
      <trkpt lat="44.97123" lon="5.42914">
        <ele>882.235596</ele>
        <time>2019-10-15T10:25:49Z</time>
      </trkpt>
      <trkpt lat="44.97113" lon="5.42916">
        <ele>882.139465</ele>
        <time>2019-10-15T10:25:52Z</time>
      </trkpt>
      <trkpt lat="44.97047" lon="5.42896">
        <ele>880.607849</ele>
        <time>2019-10-15T10:26:07Z</time>
      </trkpt>
      <trkpt lat="44.96914" lon="5.42903">
        <ele>876.610901</ele>
        <time>2019-10-15T10:26:38Z</time>
      </trkpt>
      <trkpt lat="44.96863" lon="5.42885">
        <ele>873.605225</ele>
        <time>2019-10-15T10:26:51Z</time>
      </trkpt>
      <trkpt lat="44.96827" lon="5.42891">
        <ele>872.193726</ele>
        <time>2019-10-15T10:26:59Z</time>
      </trkpt>
      <trkpt lat="44.96805" lon="5.429">
        <ele>871.547485</ele>
        <time>2019-10-15T10:27:04Z</time>
      </trkpt>
      <trkpt lat="44.96776" lon="5.42905">
        <ele>870.803772</ele>
        <time>2019-10-15T10:27:11Z</time>
      </trkpt>
      <trkpt lat="44.96738" lon="5.42899">
        <ele>870.017517</ele>
        <time>2019-10-15T10:27:20Z</time>
      </trkpt>
      <trkpt lat="44.96703" lon="5.42869">
        <ele>869.662537</ele>
        <time>2019-10-15T10:27:30Z</time>
      </trkpt>
      <trkpt lat="44.96683" lon="5.42827">
        <ele>869.868408</ele>
        <time>2019-10-15T10:27:38Z</time>
      </trkpt>
      <trkpt lat="44.96613" lon="5.42781">
        <ele>869.886841</ele>
        <time>2019-10-15T10:27:56Z</time>
      </trkpt>
      <trkpt lat="44.96582" lon="5.42766">
        <ele>869.428772</ele>
        <time>2019-10-15T10:28:04Z</time>
      </trkpt>
      <trkpt lat="44.96515" lon="5.42724">
        <ele>869.52002</ele>
        <time>2019-10-15T10:28:21Z</time>
      </trkpt>
      <trkpt lat="44.96377" lon="5.42649">
        <ele>869.122498</ele>
        <time>2019-10-15T10:28:56Z</time>
      </trkpt>
      <trkpt lat="44.96359" lon="5.42648">
        <ele>868.719971</ele>
        <time>2019-10-15T10:29:00Z</time>
      </trkpt>
      <trkpt lat="44.96329" lon="5.42655">
        <ele>868.030029</ele>
        <time>2019-10-15T10:29:07Z</time>
      </trkpt>
      <trkpt lat="44.9632" lon="5.42663">
        <ele>867.762512</ele>
        <time>2019-10-15T10:29:09Z</time>
      </trkpt>
      <trkpt lat="44.96292" lon="5.42777">
        <ele>864.120789</ele>
        <time>2019-10-15T10:29:29Z</time>
      </trkpt>
      <trkpt lat="44.96277" lon="5.42816">
        <ele>863.054626</ele>
        <time>2019-10-15T10:29:37Z</time>
      </trkpt>
      <trkpt lat="44.96269" lon="5.42869">
        <ele>859.893311</ele>
        <time>2019-10-15T10:29:46Z</time>
      </trkpt>
      <trkpt lat="44.96267" lon="5.42901">
        <ele>857.525879</ele>
        <time>2019-10-15T10:29:51Z</time>
      </trkpt>
      <trkpt lat="44.96253" lon="5.42921">
        <ele>853.886841</ele>
        <time>2019-10-15T10:29:56Z</time>
      </trkpt>
      <trkpt lat="44.96208" lon="5.42949">
        <ele>845.210327</ele>
        <time>2019-10-15T10:30:07Z</time>
      </trkpt>
      <trkpt lat="44.96184" lon="5.4296">
        <ele>842.125061</ele>
        <time>2019-10-15T10:30:13Z</time>
      </trkpt>
      <trkpt lat="44.96146" lon="5.42988">
        <ele>833.860779</ele>
        <time>2019-10-15T10:30:23Z</time>
      </trkpt>
      <trkpt lat="44.96125" lon="5.42997">
        <ele>832.578674</ele>
        <time>2019-10-15T10:30:28Z</time>
      </trkpt>
      <trkpt lat="44.96117" lon="5.43024">
        <ele>827.930237</ele>
        <time>2019-10-15T10:30:33Z</time>
      </trkpt>
      <trkpt lat="44.96113" lon="5.43027">
        <ele>827.053833</ele>
        <time>2019-10-15T10:30:34Z</time>
      </trkpt>
      <trkpt lat="44.96111" lon="5.43047">
        <ele>822.982056</ele>
        <time>2019-10-15T10:30:37Z</time>
      </trkpt>
      <trkpt lat="44.96106" lon="5.43063">
        <ele>819.566406</ele>
        <time>2019-10-15T10:30:40Z</time>
      </trkpt>
      <trkpt lat="44.96106" lon="5.43085">
        <ele>817.150696</ele>
        <time>2019-10-15T10:30:44Z</time>
      </trkpt>
      <trkpt lat="44.96101" lon="5.4311">
        <ele>812.809143</ele>
        <time>2019-10-15T10:30:48Z</time>
      </trkpt>
      <trkpt lat="44.96102" lon="5.43117">
        <ele>812.213013</ele>
        <time>2019-10-15T10:30:49Z</time>
      </trkpt>
      <trkpt lat="44.96088" lon="5.43162">
        <ele>806.195435</ele>
        <time>2019-10-15T10:30:57Z</time>
      </trkpt>
      <trkpt lat="44.96056" lon="5.43233">
        <ele>793.344482</ele>
        <time>2019-10-15T10:31:11Z</time>
      </trkpt>
      <trkpt lat="44.96058" lon="5.43265">
        <ele>792.955872</ele>
        <time>2019-10-15T10:31:17Z</time>
      </trkpt>
      <trkpt lat="44.96061" lon="5.43276">
        <ele>793.935242</ele>
        <time>2019-10-15T10:31:19Z</time>
      </trkpt>
      <trkpt lat="44.96052" lon="5.43334">
        <ele>788.891235</ele>
        <time>2019-10-15T10:31:28Z</time>
      </trkpt>
      <trkpt lat="44.96056" lon="5.43351">
        <ele>791.328796</ele>
        <time>2019-10-15T10:31:31Z</time>
      </trkpt>
      <trkpt lat="44.96056" lon="5.43381">
        <ele>791.365967</ele>
        <time>2019-10-15T10:31:36Z</time>
      </trkpt>
      <trkpt lat="44.96065" lon="5.4343">
        <ele>793.254395</ele>
        <time>2019-10-15T10:31:45Z</time>
      </trkpt>
      <trkpt lat="44.96066" lon="5.4346">
        <ele>788.237732</ele>
        <time>2019-10-15T10:31:50Z</time>
      </trkpt>
      <trkpt lat="44.96063" lon="5.43471">
        <ele>784.937378</ele>
        <time>2019-10-15T10:31:52Z</time>
      </trkpt>
      <trkpt lat="44.96065" lon="5.4348">
        <ele>783.834778</ele>
        <time>2019-10-15T10:31:53Z</time>
      </trkpt>
      <trkpt lat="44.96057" lon="5.43556">
        <ele>765.017944</ele>
        <time>2019-10-15T10:32:06Z</time>
      </trkpt>
      <trkpt lat="44.96033" lon="5.43598">
        <ele>762.948364</ele>
        <time>2019-10-15T10:32:15Z</time>
      </trkpt>
      <trkpt lat="44.96017" lon="5.43609">
        <ele>763.479065</ele>
        <time>2019-10-15T10:32:19Z</time>
      </trkpt>
      <trkpt lat="44.96012" lon="5.43622">
        <ele>763.309387</ele>
        <time>2019-10-15T10:32:21Z</time>
      </trkpt>
      <trkpt lat="44.96003" lon="5.43631">
        <ele>762.97876</ele>
        <time>2019-10-15T10:32:24Z</time>
      </trkpt>
      <trkpt lat="44.95935" lon="5.43634">
        <ele>762.617065</ele>
        <time>2019-10-15T10:32:40Z</time>
      </trkpt>
      <trkpt lat="44.95844" lon="5.4367">
        <ele>757.192505</ele>
        <time>2019-10-15T10:33:02Z</time>
      </trkpt>
      <trkpt lat="44.95826" lon="5.43672">
        <ele>757.127502</ele>
        <time>2019-10-15T10:33:06Z</time>
      </trkpt>
      <trkpt lat="44.95788" lon="5.43668">
        <ele>756.389832</ele>
        <time>2019-10-15T10:33:15Z</time>
      </trkpt>
      <trkpt lat="44.95784" lon="5.43673">
        <ele>755.458374</ele>
        <time>2019-10-15T10:33:16Z</time>
      </trkpt>
      <trkpt lat="44.95776" lon="5.43673">
        <ele>755.087158</ele>
        <time>2019-10-15T10:33:18Z</time>
      </trkpt>
      <trkpt lat="44.95714" lon="5.43651">
        <ele>755.759644</ele>
        <time>2019-10-15T10:33:33Z</time>
      </trkpt>
      <trkpt lat="44.95703" lon="5.4365">
        <ele>755.496033</ele>
        <time>2019-10-15T10:33:36Z</time>
      </trkpt>
      <trkpt lat="44.95689" lon="5.43659">
        <ele>754.007446</ele>
        <time>2019-10-15T10:33:39Z</time>
      </trkpt>
      <trkpt lat="44.9569" lon="5.43694">
        <ele>752.249939</ele>
        <time>2019-10-15T10:33:45Z</time>
      </trkpt>
      <trkpt lat="44.95698" lon="5.43725">
        <ele>751.203979</ele>
        <time>2019-10-15T10:33:51Z</time>
      </trkpt>
      <trkpt lat="44.95703" lon="5.43761">
        <ele>751.47876</ele>
        <time>2019-10-15T10:33:57Z</time>
      </trkpt>
      <trkpt lat="44.95694" lon="5.43805">
        <ele>752.543762</ele>
        <time>2019-10-15T10:34:04Z</time>
      </trkpt>
      <trkpt lat="44.95684" lon="5.43821">
        <ele>753.32373</ele>
        <time>2019-10-15T10:34:08Z</time>
      </trkpt>
      <trkpt lat="44.95676" lon="5.43873">
        <ele>756.880554</ele>
        <time>2019-10-15T10:34:17Z</time>
      </trkpt>
      <trkpt lat="44.95666" lon="5.43907">
        <ele>760.893738</ele>
        <time>2019-10-15T10:34:23Z</time>
      </trkpt>
      <trkpt lat="44.9564" lon="5.43946">
        <ele>767.165527</ele>
        <time>2019-10-15T10:34:32Z</time>
      </trkpt>
      <trkpt lat="44.95634" lon="5.43965">
        <ele>770.350952</ele>
        <time>2019-10-15T10:34:35Z</time>
      </trkpt>
      <trkpt lat="44.95618" lon="5.43986">
        <ele>774.23999</ele>
        <time>2019-10-15T10:34:40Z</time>
      </trkpt>
      <trkpt lat="44.95609" lon="5.43985">
        <ele>774.367493</ele>
        <time>2019-10-15T10:34:42Z</time>
      </trkpt>
      <trkpt lat="44.95604" lon="5.43979">
        <ele>773.580017</ele>
        <time>2019-10-15T10:34:44Z</time>
      </trkpt>
      <trkpt lat="44.95591" lon="5.43945">
        <ele>769.076782</ele>
        <time>2019-10-15T10:34:50Z</time>
      </trkpt>
      <trkpt lat="44.95536" lon="5.43884">
        <ele>762.419983</ele>
        <time>2019-10-15T10:35:07Z</time>
      </trkpt>
      <trkpt lat="44.95521" lon="5.43878">
        <ele>761.432495</ele>
        <time>2019-10-15T10:35:10Z</time>
      </trkpt>
      <trkpt lat="44.95457" lon="5.43872">
        <ele>759.405212</ele>
        <time>2019-10-15T10:35:25Z</time>
      </trkpt>
      <trkpt lat="44.9545" lon="5.43868">
        <ele>758.943726</ele>
        <time>2019-10-15T10:35:27Z</time>
      </trkpt>
      <trkpt lat="44.95432" lon="5.43879">
        <ele>759.887512</ele>
        <time>2019-10-15T10:35:32Z</time>
      </trkpt>
      <trkpt lat="44.95389" lon="5.43855">
        <ele>758.66394</ele>
        <time>2019-10-15T10:35:42Z</time>
      </trkpt>
      <trkpt lat="44.95365" lon="5.43846">
        <ele>758.61377</ele>
        <time>2019-10-15T10:35:48Z</time>
      </trkpt>
      <trkpt lat="44.95327" lon="5.43841">
        <ele>759.246582</ele>
        <time>2019-10-15T10:35:57Z</time>
      </trkpt>
      <trkpt lat="44.95288" lon="5.43827">
        <ele>759.339722</ele>
        <time>2019-10-15T10:36:07Z</time>
      </trkpt>
      <trkpt lat="44.95183" lon="5.43802">
        <ele>759.743774</ele>
        <time>2019-10-15T10:36:31Z</time>
      </trkpt>
      <trkpt lat="44.9516" lon="5.43791">
        <ele>759.282471</ele>
        <time>2019-10-15T10:36:37Z</time>
      </trkpt>
      <trkpt lat="44.95076" lon="5.43733">
        <ele>758.829529</ele>
        <time>2019-10-15T10:36:59Z</time>
      </trkpt>
      <trkpt lat="44.95041" lon="5.43705">
        <ele>758.38678</ele>
        <time>2019-10-15T10:37:08Z</time>
      </trkpt>
      <trkpt lat="44.95001" lon="5.43698">
        <ele>758.320496</ele>
        <time>2019-10-15T10:37:18Z</time>
      </trkpt>
      <trkpt lat="44.94945" lon="5.43669">
        <ele>757.691223</ele>
        <time>2019-10-15T10:37:32Z</time>
      </trkpt>
      <trkpt lat="44.94925" lon="5.43664">
        <ele>757.630005</ele>
        <time>2019-10-15T10:37:36Z</time>
      </trkpt>
      <trkpt lat="44.94894" lon="5.43671">
        <ele>758.149353</ele>
        <time>2019-10-15T10:37:44Z</time>
      </trkpt>
      <trkpt lat="44.94769" lon="5.43669">
        <ele>759.38501</ele>
        <time>2019-10-15T10:38:13Z</time>
      </trkpt>
      <trkpt lat="44.94654" lon="5.43678">
        <ele>759.710022</ele>
        <time>2019-10-15T10:38:40Z</time>
      </trkpt>
      <trkpt lat="44.94619" lon="5.43691">
        <ele>762.001648</ele>
        <time>2019-10-15T10:38:48Z</time>
      </trkpt>
      <trkpt lat="44.94595" lon="5.43694">
        <ele>762.952454</ele>
        <time>2019-10-15T10:38:54Z</time>
      </trkpt>
      <trkpt lat="44.94548" lon="5.43718">
        <ele>766.933105</ele>
        <time>2019-10-15T10:39:06Z</time>
      </trkpt>
      <trkpt lat="44.94537" lon="5.4372">
        <ele>767.23877</ele>
        <time>2019-10-15T10:39:08Z</time>
      </trkpt>
      <trkpt lat="44.94541" lon="5.43741">
        <ele>769.607849</ele>
        <time>2019-10-15T10:39:12Z</time>
      </trkpt>
      <trkpt lat="44.94535" lon="5.43772">
        <ele>773.653442</ele>
        <time>2019-10-15T10:39:17Z</time>
      </trkpt>
      <trkpt lat="44.9452" lon="5.43794">
        <ele>775.488525</ele>
        <time>2019-10-15T10:39:22Z</time>
      </trkpt>
      <trkpt lat="44.94524" lon="5.43799">
        <ele>776.728271</ele>
        <time>2019-10-15T10:39:23Z</time>
      </trkpt>
      <trkpt lat="44.94546" lon="5.43794">
        <ele>777.552917</ele>
        <time>2019-10-15T10:39:29Z</time>
      </trkpt>
      <trkpt lat="44.94551" lon="5.43799">
        <ele>778.911682</ele>
        <time>2019-10-15T10:39:30Z</time>
      </trkpt>
      <trkpt lat="44.94551" lon="5.43806">
        <ele>780.238037</ele>
        <time>2019-10-15T10:39:31Z</time>
      </trkpt>
      <trkpt lat="44.9454" lon="5.43835">
        <ele>784.781799</ele>
        <time>2019-10-15T10:39:37Z</time>
      </trkpt>
      <trkpt lat="44.94517" lon="5.43863">
        <ele>788.233765</ele>
        <time>2019-10-15T10:39:44Z</time>
      </trkpt>
      <trkpt lat="44.94496" lon="5.43875">
        <ele>789.530029</ele>
        <time>2019-10-15T10:39:49Z</time>
      </trkpt>
      <trkpt lat="44.94477" lon="5.43879">
        <ele>789.109985</ele>
        <time>2019-10-15T10:39:54Z</time>
      </trkpt>
      <trkpt lat="44.94436" lon="5.439">
        <ele>792.98999</ele>
        <time>2019-10-15T10:40:04Z</time>
      </trkpt>
      <trkpt lat="44.94407" lon="5.43905">
        <ele>794.372498</ele>
        <time>2019-10-15T10:40:11Z</time>
      </trkpt>
      <trkpt lat="44.9436" lon="5.4392">
        <ele>799.804993</ele>
        <time>2019-10-15T10:40:22Z</time>
      </trkpt>
      <trkpt lat="44.94331" lon="5.43924">
        <ele>801.313721</ele>
        <time>2019-10-15T10:40:29Z</time>
      </trkpt>
      <trkpt lat="44.94308" lon="5.43939">
        <ele>805.312988</ele>
        <time>2019-10-15T10:40:35Z</time>
      </trkpt>
      <trkpt lat="44.94305" lon="5.43947">
        <ele>807.35199</ele>
        <time>2019-10-15T10:40:36Z</time>
      </trkpt>
      <trkpt lat="44.94285" lon="5.4396">
        <ele>810.200562</ele>
        <time>2019-10-15T10:40:41Z</time>
      </trkpt>
      <trkpt lat="44.94255" lon="5.43969">
        <ele>811.039368</ele>
        <time>2019-10-15T10:40:48Z</time>
      </trkpt>
      <trkpt lat="44.94251" lon="5.43965">
        <ele>809.768738</ele>
        <time>2019-10-15T10:40:49Z</time>
      </trkpt>
      <trkpt lat="44.9424" lon="5.43966">
        <ele>809.408752</ele>
        <time>2019-10-15T10:40:52Z</time>
      </trkpt>
      <trkpt lat="44.94203" lon="5.43988">
        <ele>813.569519</ele>
        <time>2019-10-15T10:41:01Z</time>
      </trkpt>
      <trkpt lat="44.94172" lon="5.43989">
        <ele>812.921143</ele>
        <time>2019-10-15T10:41:09Z</time>
      </trkpt>
      <trkpt lat="44.94147" lon="5.43977">
        <ele>809.59552</ele>
        <time>2019-10-15T10:41:15Z</time>
      </trkpt>
      <trkpt lat="44.94118" lon="5.43978">
        <ele>809.557373</ele>
        <time>2019-10-15T10:41:22Z</time>
      </trkpt>
      <trkpt lat="44.94102" lon="5.43971">
        <ele>807.446899</ele>
        <time>2019-10-15T10:41:26Z</time>
      </trkpt>
      <trkpt lat="44.94056" lon="5.43966">
        <ele>805.744995</ele>
        <time>2019-10-15T10:41:36Z</time>
      </trkpt>
      <trkpt lat="44.94022" lon="5.43975">
        <ele>807.92749</ele>
        <time>2019-10-15T10:41:44Z</time>
      </trkpt>
      <trkpt lat="44.94007" lon="5.43973">
        <ele>807.331726</ele>
        <time>2019-10-15T10:41:48Z</time>
      </trkpt>
      <trkpt lat="44.93986" lon="5.43962">
        <ele>805.71283</ele>
        <time>2019-10-15T10:41:53Z</time>
      </trkpt>
      <trkpt lat="44.93956" lon="5.43957">
        <ele>806.844116</ele>
        <time>2019-10-15T10:42:00Z</time>
      </trkpt>
      <trkpt lat="44.93941" lon="5.43935">
        <ele>803.821533</ele>
        <time>2019-10-15T10:42:05Z</time>
      </trkpt>
      <trkpt lat="44.9392" lon="5.43917">
        <ele>802.48114</ele>
        <time>2019-10-15T10:42:11Z</time>
      </trkpt>
      <trkpt lat="44.93887" lon="5.43878">
        <ele>797.804993</ele>
        <time>2019-10-15T10:42:21Z</time>
      </trkpt>
      <trkpt lat="44.93865" lon="5.43858">
        <ele>797.439392</ele>
        <time>2019-10-15T10:42:27Z</time>
      </trkpt>
      <trkpt lat="44.9382" lon="5.43779">
        <ele>790.136047</ele>
        <time>2019-10-15T10:42:44Z</time>
      </trkpt>
      <trkpt lat="44.93792" lon="5.43746">
        <ele>787.067871</ele>
        <time>2019-10-15T10:42:52Z</time>
      </trkpt>
      <trkpt lat="44.93741" lon="5.43708">
        <ele>782.987488</ele>
        <time>2019-10-15T10:43:06Z</time>
      </trkpt>
      <trkpt lat="44.93727" lon="5.43702">
        <ele>782.080017</ele>
        <time>2019-10-15T10:43:09Z</time>
      </trkpt>
      <trkpt lat="44.93704" lon="5.43684">
        <ele>779.178772</ele>
        <time>2019-10-15T10:43:15Z</time>
      </trkpt>
      <trkpt lat="44.937" lon="5.43665">
        <ele>777.306824</ele>
        <time>2019-10-15T10:43:19Z</time>
      </trkpt>
      <trkpt lat="44.93702" lon="5.43528">
        <ele>771.070007</ele>
        <time>2019-10-15T10:43:41Z</time>
      </trkpt>
      <trkpt lat="44.937" lon="5.43516">
        <ele>771.122498</ele>
        <time>2019-10-15T10:43:43Z</time>
      </trkpt>
      <trkpt lat="44.9369" lon="5.43502">
        <ele>771.352478</ele>
        <time>2019-10-15T10:43:47Z</time>
      </trkpt>
      <trkpt lat="44.93688" lon="5.43486">
        <ele>771.501221</ele>
        <time>2019-10-15T10:43:49Z</time>
      </trkpt>
      <trkpt lat="44.93683" lon="5.43478">
        <ele>771.73877</ele>
        <time>2019-10-15T10:43:51Z</time>
      </trkpt>
      <trkpt lat="44.93643" lon="5.43458">
        <ele>772.921265</ele>
        <time>2019-10-15T10:44:01Z</time>
      </trkpt>
      <trkpt lat="44.93623" lon="5.43438">
        <ele>773.67749</ele>
        <time>2019-10-15T10:44:07Z</time>
      </trkpt>
      <trkpt lat="44.93624" lon="5.4343">
        <ele>773.787476</ele>
        <time>2019-10-15T10:44:08Z</time>
      </trkpt>
      <trkpt lat="44.9362" lon="5.43407">
        <ele>774.838684</ele>
        <time>2019-10-15T10:44:12Z</time>
      </trkpt>
      <trkpt lat="44.93625" lon="5.4337">
        <ele>776.803223</ele>
        <time>2019-10-15T10:44:18Z</time>
      </trkpt>
      <trkpt lat="44.93625" lon="5.43344">
        <ele>780.319397</ele>
        <time>2019-10-15T10:44:23Z</time>
      </trkpt>
      <trkpt lat="44.93619" lon="5.43332">
        <ele>782.117493</ele>
        <time>2019-10-15T10:44:25Z</time>
      </trkpt>
      <trkpt lat="44.93601" lon="5.43322">
        <ele>783.937012</ele>
        <time>2019-10-15T10:44:30Z</time>
      </trkpt>
      <trkpt lat="44.93595" lon="5.43309">
        <ele>786.338379</ele>
        <time>2019-10-15T10:44:32Z</time>
      </trkpt>
      <trkpt lat="44.93597" lon="5.43257">
        <ele>795.219971</ele>
        <time>2019-10-15T10:44:41Z</time>
      </trkpt>
      <trkpt lat="44.93593" lon="5.43214">
        <ele>799.583862</ele>
        <time>2019-10-15T10:44:48Z</time>
      </trkpt>
      <trkpt lat="44.93591" lon="5.4322">
        <ele>799.605957</ele>
        <time>2019-10-15T10:44:49Z</time>
      </trkpt>
      <trkpt lat="44.93593" lon="5.43185">
        <ele>799.946655</ele>
        <time>2019-10-15T10:44:55Z</time>
      </trkpt>
      <trkpt lat="44.93589" lon="5.43178">
        <ele>800.286804</ele>
        <time>2019-10-15T10:44:56Z</time>
      </trkpt>
      <trkpt lat="44.93564" lon="5.43181">
        <ele>801.290955</ele>
        <time>2019-10-15T10:45:02Z</time>
      </trkpt>
      <trkpt lat="44.93557" lon="5.43185">
        <ele>801.330933</ele>
        <time>2019-10-15T10:45:04Z</time>
      </trkpt>
      <trkpt lat="44.93515" lon="5.43186">
        <ele>798.534851</ele>
        <time>2019-10-15T10:45:14Z</time>
      </trkpt>
      <trkpt lat="44.93503" lon="5.43176">
        <ele>797.869019</ele>
        <time>2019-10-15T10:45:17Z</time>
      </trkpt>
      <trkpt lat="44.93479" lon="5.43166">
        <ele>794.631897</ele>
        <time>2019-10-15T10:45:23Z</time>
      </trkpt>
      <trkpt lat="44.9347" lon="5.43176">
        <ele>790.979248</ele>
        <time>2019-10-15T10:45:26Z</time>
      </trkpt>
      <trkpt lat="44.93446" lon="5.43156">
        <ele>786.294617</ele>
        <time>2019-10-15T10:45:32Z</time>
      </trkpt>
      <trkpt lat="44.93421" lon="5.43142">
        <ele>782.869568</ele>
        <time>2019-10-15T10:45:38Z</time>
      </trkpt>
      <trkpt lat="44.93386" lon="5.43099">
        <ele>780.762329</ele>
        <time>2019-10-15T10:45:49Z</time>
      </trkpt>
      <trkpt lat="44.93361" lon="5.43079">
        <ele>780.363892</ele>
        <time>2019-10-15T10:45:56Z</time>
      </trkpt>
      <trkpt lat="44.93357" lon="5.4308">
        <ele>780.038086</ele>
        <time>2019-10-15T10:45:57Z</time>
      </trkpt>
      <trkpt lat="44.93356" lon="5.43074">
        <ele>780.472778</ele>
        <time>2019-10-15T10:45:58Z</time>
      </trkpt>
      <trkpt lat="44.93347" lon="5.43069">
        <ele>780.547485</ele>
        <time>2019-10-15T10:46:00Z</time>
      </trkpt>
      <trkpt lat="44.93342" lon="5.43071">
        <ele>780.227661</ele>
        <time>2019-10-15T10:46:02Z</time>
      </trkpt>
      <trkpt lat="44.93335" lon="5.43095">
        <ele>778.441528</ele>
        <time>2019-10-15T10:46:06Z</time>
      </trkpt>
      <trkpt lat="44.93248" lon="5.43071">
        <ele>779.729797</ele>
        <time>2019-10-15T10:46:27Z</time>
      </trkpt>
      <trkpt lat="44.93232" lon="5.43063">
        <ele>779.948669</ele>
        <time>2019-10-15T10:46:31Z</time>
      </trkpt>
      <trkpt lat="44.93171" lon="5.43019">
        <ele>780.375</ele>
        <time>2019-10-15T10:46:47Z</time>
      </trkpt>
      <trkpt lat="44.93125" lon="5.43003">
        <ele>781.938843</ele>
        <time>2019-10-15T10:46:58Z</time>
      </trkpt>
      <trkpt lat="44.9307" lon="5.43006">
        <ele>784.545105</ele>
        <time>2019-10-15T10:47:10Z</time>
      </trkpt>
      <trkpt lat="44.93023" lon="5.43013">
        <ele>786.956055</ele>
        <time>2019-10-15T10:47:22Z</time>
      </trkpt>
      <trkpt lat="44.92994" lon="5.43022">
        <ele>787.903137</ele>
        <time>2019-10-15T10:47:28Z</time>
      </trkpt>
      <trkpt lat="44.92948" lon="5.43024">
        <ele>788.510437</ele>
        <time>2019-10-15T10:47:39Z</time>
      </trkpt>
      <trkpt lat="44.92932" lon="5.43017">
        <ele>788.749817</ele>
        <time>2019-10-15T10:47:43Z</time>
      </trkpt>
      <trkpt lat="44.92891" lon="5.43008">
        <ele>789.765015</ele>
        <time>2019-10-15T10:47:53Z</time>
      </trkpt>
      <trkpt lat="44.92855" lon="5.42979">
        <ele>791.742004</ele>
        <time>2019-10-15T10:48:03Z</time>
      </trkpt>
      <trkpt lat="44.92839" lon="5.42971">
        <ele>792.376282</ele>
        <time>2019-10-15T10:48:06Z</time>
      </trkpt>
      <trkpt lat="44.9279" lon="5.42968">
        <ele>793.679993</ele>
        <time>2019-10-15T10:48:18Z</time>
      </trkpt>
      <trkpt lat="44.92737" lon="5.42979">
        <ele>794</ele>
        <time>2019-10-15T10:48:30Z</time>
      </trkpt>
      <trkpt lat="44.92686" lon="5.42936">
        <ele>794.105042</ele>
        <time>2019-10-15T10:48:44Z</time>
      </trkpt>
      <trkpt lat="44.9269" lon="5.4293">
        <ele>794.004639</ele>
        <time>2019-10-15T10:48:46Z</time>
      </trkpt>
      <trkpt lat="44.92707" lon="5.42868">
        <ele>793.419128</ele>
        <time>2019-10-15T10:48:57Z</time>
      </trkpt>
      <trkpt lat="44.92723" lon="5.42826">
        <ele>793.914063</ele>
        <time>2019-10-15T10:49:05Z</time>
      </trkpt>
      <trkpt lat="44.92732" lon="5.42789">
        <ele>795.266907</ele>
        <time>2019-10-15T10:49:11Z</time>
      </trkpt>
      <trkpt lat="44.92728" lon="5.42777">
        <ele>796.140015</ele>
        <time>2019-10-15T10:49:13Z</time>
      </trkpt>
      <trkpt lat="44.92731" lon="5.42765">
        <ele>797.106506</ele>
        <time>2019-10-15T10:49:15Z</time>
      </trkpt>
      <trkpt lat="44.92729" lon="5.42771">
        <ele>796.608887</ele>
        <time>2019-10-15T10:49:17Z</time>
      </trkpt>
      <trkpt lat="44.92729" lon="5.42758">
        <ele>797.60022</ele>
        <time>2019-10-15T10:49:19Z</time>
      </trkpt>
      <trkpt lat="44.92738" lon="5.42741">
        <ele>799.147949</ele>
        <time>2019-10-15T10:49:22Z</time>
      </trkpt>
      <trkpt lat="44.92744" lon="5.42699">
        <ele>804.469543</ele>
        <time>2019-10-15T10:49:29Z</time>
      </trkpt>
      <trkpt lat="44.92753" lon="5.4269">
        <ele>805.657593</ele>
        <time>2019-10-15T10:49:32Z</time>
      </trkpt>
      <trkpt lat="44.92779" lon="5.42677">
        <ele>807.794983</ele>
        <time>2019-10-15T10:49:38Z</time>
      </trkpt>
      <trkpt lat="44.92788" lon="5.42655">
        <ele>812.054993</ele>
        <time>2019-10-15T10:49:43Z</time>
      </trkpt>
      <trkpt lat="44.9279" lon="5.42634">
        <ele>816.059998</ele>
        <time>2019-10-15T10:49:46Z</time>
      </trkpt>
      <trkpt lat="44.92796" lon="5.42623">
        <ele>818.205017</ele>
        <time>2019-10-15T10:49:48Z</time>
      </trkpt>
      <trkpt lat="44.92781" lon="5.42603">
        <ele>822.729187</ele>
        <time>2019-10-15T10:49:53Z</time>
      </trkpt>
      <trkpt lat="44.92781" lon="5.42596">
        <ele>824.462097</ele>
        <time>2019-10-15T10:49:54Z</time>
      </trkpt>
      <trkpt lat="44.92786" lon="5.4259">
        <ele>826.135559</ele>
        <time>2019-10-15T10:49:56Z</time>
      </trkpt>
      <trkpt lat="44.92811" lon="5.42588">
        <ele>827.254333</ele>
        <time>2019-10-15T10:50:02Z</time>
      </trkpt>
      <trkpt lat="44.92815" lon="5.42582">
        <ele>828.939392</ele>
        <time>2019-10-15T10:50:03Z</time>
      </trkpt>
      <trkpt lat="44.92814" lon="5.42575">
        <ele>830.749817</ele>
        <time>2019-10-15T10:50:04Z</time>
      </trkpt>
      <trkpt lat="44.92796" lon="5.42565">
        <ele>832.751892</ele>
        <time>2019-10-15T10:50:09Z</time>
      </trkpt>
      <trkpt lat="44.92752" lon="5.42526">
        <ele>840.64624</ele>
        <time>2019-10-15T10:50:21Z</time>
      </trkpt>
      <trkpt lat="44.92717" lon="5.42504">
        <ele>845.032471</ele>
        <time>2019-10-15T10:50:30Z</time>
      </trkpt>
      <trkpt lat="44.9267" lon="5.4249">
        <ele>847.782471</ele>
        <time>2019-10-15T10:50:41Z</time>
      </trkpt>
      <trkpt lat="44.92638" lon="5.42502">
        <ele>845.82251</ele>
        <time>2019-10-15T10:50:49Z</time>
      </trkpt>
      <trkpt lat="44.92608" lon="5.42501">
        <ele>848.098328</ele>
        <time>2019-10-15T10:50:56Z</time>
      </trkpt>
      <trkpt lat="44.92585" lon="5.42493">
        <ele>851.427612</ele>
        <time>2019-10-15T10:51:02Z</time>
      </trkpt>
      <trkpt lat="44.92546" lon="5.42491">
        <ele>853.58374</ele>
        <time>2019-10-15T10:51:11Z</time>
      </trkpt>
      <trkpt lat="44.92517" lon="5.42477">
        <ele>857.139221</ele>
        <time>2019-10-15T10:51:18Z</time>
      </trkpt>
      <trkpt lat="44.92502" lon="5.42475">
        <ele>858.727478</ele>
        <time>2019-10-15T10:51:21Z</time>
      </trkpt>
      <trkpt lat="44.92464" lon="5.42487">
        <ele>859.479248</ele>
        <time>2019-10-15T10:51:30Z</time>
      </trkpt>
      <trkpt lat="44.92394" lon="5.42485">
        <ele>873.97998</ele>
        <time>2019-10-15T10:51:47Z</time>
      </trkpt>
      <trkpt lat="44.92343" lon="5.42499">
        <ele>878.684204</ele>
        <time>2019-10-15T10:51:59Z</time>
      </trkpt>
      <trkpt lat="44.92322" lon="5.42496">
        <ele>880.471375</ele>
        <time>2019-10-15T10:52:04Z</time>
      </trkpt>
      <trkpt lat="44.92292" lon="5.42484">
        <ele>884.330017</ele>
        <time>2019-10-15T10:52:11Z</time>
      </trkpt>
      <trkpt lat="44.92271" lon="5.42483">
        <ele>883.817505</ele>
        <time>2019-10-15T10:52:16Z</time>
      </trkpt>
      <trkpt lat="44.92185" lon="5.42439">
        <ele>894.380432</ele>
        <time>2019-10-15T10:52:38Z</time>
      </trkpt>
      <trkpt lat="44.92176" lon="5.42438">
        <ele>894.829346</ele>
        <time>2019-10-15T10:52:40Z</time>
      </trkpt>
      <trkpt lat="44.92168" lon="5.42426">
        <ele>897.279236</ele>
        <time>2019-10-15T10:52:42Z</time>
      </trkpt>
      <trkpt lat="44.92137" lon="5.42405">
        <ele>900.572266</ele>
        <time>2019-10-15T10:52:50Z</time>
      </trkpt>
      <trkpt lat="44.92127" lon="5.42394">
        <ele>901.917236</ele>
        <time>2019-10-15T10:52:53Z</time>
      </trkpt>
      <trkpt lat="44.92097" lon="5.42334">
        <ele>909.546814</ele>
        <time>2019-10-15T10:53:06Z</time>
      </trkpt>
      <trkpt lat="44.92087" lon="5.42322">
        <ele>911.045959</ele>
        <time>2019-10-15T10:53:09Z</time>
      </trkpt>
      <trkpt lat="44.92061" lon="5.42312">
        <ele>912.556091</ele>
        <time>2019-10-15T10:53:15Z</time>
      </trkpt>
      <trkpt lat="44.92015" lon="5.42301">
        <ele>915.335022</ele>
        <time>2019-10-15T10:53:26Z</time>
      </trkpt>
      <trkpt lat="44.92009" lon="5.4229">
        <ele>917.484985</ele>
        <time>2019-10-15T10:53:28Z</time>
      </trkpt>
      <trkpt lat="44.92012" lon="5.42283">
        <ele>918.787476</ele>
        <time>2019-10-15T10:53:29Z</time>
      </trkpt>
      <trkpt lat="44.92082" lon="5.42245">
        <ele>925.9198</ele>
        <time>2019-10-15T10:53:47Z</time>
      </trkpt>
      <trkpt lat="44.92111" lon="5.42234">
        <ele>929.910706</ele>
        <time>2019-10-15T10:53:54Z</time>
      </trkpt>
      <trkpt lat="44.92169" lon="5.42221">
        <ele>935.594666</ele>
        <time>2019-10-15T10:54:08Z</time>
      </trkpt>
      <trkpt lat="44.92203" lon="5.42219">
        <ele>937.452209</ele>
        <time>2019-10-15T10:54:16Z</time>
      </trkpt>
      <trkpt lat="44.92231" lon="5.42207">
        <ele>940.933594</ele>
        <time>2019-10-15T10:54:22Z</time>
      </trkpt>
      <trkpt lat="44.92259" lon="5.42203">
        <ele>943.129456</ele>
        <time>2019-10-15T10:54:29Z</time>
      </trkpt>
      <trkpt lat="44.92272" lon="5.42197">
        <ele>944.466492</ele>
        <time>2019-10-15T10:54:32Z</time>
      </trkpt>
      <trkpt lat="44.92298" lon="5.42177">
        <ele>948.948547</ele>
        <time>2019-10-15T10:54:39Z</time>
      </trkpt>
      <trkpt lat="44.92331" lon="5.4216">
        <ele>952.668213</ele>
        <time>2019-10-15T10:54:47Z</time>
      </trkpt>
      <trkpt lat="44.92335" lon="5.42165">
        <ele>951.538025</ele>
        <time>2019-10-15T10:54:49Z</time>
      </trkpt>
      <trkpt lat="44.92334" lon="5.42171">
        <ele>950.18103</ele>
        <time>2019-10-15T10:54:50Z</time>
      </trkpt>
      <trkpt lat="44.92336" lon="5.42159">
        <ele>952.921387</ele>
        <time>2019-10-15T10:54:52Z</time>
      </trkpt>
      <trkpt lat="44.92352" lon="5.42153">
        <ele>954.38385</ele>
        <time>2019-10-15T10:54:56Z</time>
      </trkpt>
      <trkpt lat="44.92392" lon="5.42153">
        <ele>954.030029</ele>
        <time>2019-10-15T10:55:05Z</time>
      </trkpt>
      <trkpt lat="44.92414" lon="5.42139">
        <ele>958.085999</ele>
        <time>2019-10-15T10:55:11Z</time>
      </trkpt>
      <trkpt lat="44.92476" lon="5.42119">
        <ele>964.882141</ele>
        <time>2019-10-15T10:55:25Z</time>
      </trkpt>
      <trkpt lat="44.92528" lon="5.42115">
        <ele>967.067505</ele>
        <time>2019-10-15T10:55:38Z</time>
      </trkpt>
      <trkpt lat="44.9254" lon="5.4211">
        <ele>968.95752</ele>
        <time>2019-10-15T10:55:40Z</time>
      </trkpt>
      <trkpt lat="44.92608" lon="5.42104">
        <ele>973.608887</ele>
        <time>2019-10-15T10:55:56Z</time>
      </trkpt>
      <trkpt lat="44.92647" lon="5.42087">
        <ele>983.973755</ele>
        <time>2019-10-15T10:56:06Z</time>
      </trkpt>
      <trkpt lat="44.92666" lon="5.42092">
        <ele>984.15918</ele>
        <time>2019-10-15T10:56:11Z</time>
      </trkpt>
      <trkpt lat="44.92682" lon="5.42106">
        <ele>981.581909</ele>
        <time>2019-10-15T10:56:15Z</time>
      </trkpt>
      <trkpt lat="44.92707" lon="5.42112">
        <ele>983.860474</ele>
        <time>2019-10-15T10:56:21Z</time>
      </trkpt>
      <trkpt lat="44.92736" lon="5.42127">
        <ele>985.170776</ele>
        <time>2019-10-15T10:56:28Z</time>
      </trkpt>
      <trkpt lat="44.92765" lon="5.42137">
        <ele>988.250427</ele>
        <time>2019-10-15T10:56:35Z</time>
      </trkpt>
      <trkpt lat="44.92805" lon="5.42161">
        <ele>988.47937</ele>
        <time>2019-10-15T10:56:45Z</time>
      </trkpt>
      <trkpt lat="44.92878" lon="5.4218">
        <ele>998.006958</ele>
        <time>2019-10-15T10:57:03Z</time>
      </trkpt>
      <trkpt lat="44.92877" lon="5.42186">
        <ele>995.613281</ele>
        <time>2019-10-15T10:57:04Z</time>
      </trkpt>
      <trkpt lat="44.92885" lon="5.42191">
        <ele>995.608582</ele>
        <time>2019-10-15T10:57:06Z</time>
      </trkpt>
      <trkpt lat="44.92902" lon="5.42193">
        <ele>999.318726</ele>
        <time>2019-10-15T10:57:10Z</time>
      </trkpt>
      <trkpt lat="44.92913" lon="5.42199">
        <ele>1000.057495</ele>
        <time>2019-10-15T10:57:12Z</time>
      </trkpt>
      <trkpt lat="44.92919" lon="5.42198">
        <ele>1002.003723</ele>
        <time>2019-10-15T10:57:14Z</time>
      </trkpt>
      <trkpt lat="44.92921" lon="5.42192">
        <ele>1004.657471</ele>
        <time>2019-10-15T10:57:15Z</time>
      </trkpt>
      <trkpt lat="44.92917" lon="5.42186">
        <ele>1005.73877</ele>
        <time>2019-10-15T10:57:16Z</time>
      </trkpt>
      <trkpt lat="44.92892" lon="5.42174">
        <ele>1003.299988</ele>
        <time>2019-10-15T10:57:22Z</time>
      </trkpt>
      <trkpt lat="44.92871" lon="5.42149">
        <ele>1006.862793</ele>
        <time>2019-10-15T10:57:29Z</time>
      </trkpt>
      <trkpt lat="44.92815" lon="5.42103">
        <ele>1009.956299</ele>
        <time>2019-10-15T10:57:44Z</time>
      </trkpt>
      <trkpt lat="44.92793" lon="5.42076">
        <ele>1013.887146</ele>
        <time>2019-10-15T10:57:51Z</time>
      </trkpt>
      <trkpt lat="44.92754" lon="5.42042">
        <ele>1016.977478</ele>
        <time>2019-10-15T10:58:01Z</time>
      </trkpt>
      <trkpt lat="44.92712" lon="5.41995">
        <ele>1024.139038</ele>
        <time>2019-10-15T10:58:14Z</time>
      </trkpt>
      <trkpt lat="44.92676" lon="5.41976">
        <ele>1025.661743</ele>
        <time>2019-10-15T10:58:23Z</time>
      </trkpt>
      <trkpt lat="44.92651" lon="5.41954">
        <ele>1029.077515</ele>
        <time>2019-10-15T10:58:30Z</time>
      </trkpt>
      <trkpt lat="44.92622" lon="5.41935">
        <ele>1030.681274</ele>
        <time>2019-10-15T10:58:37Z</time>
      </trkpt>
      <trkpt lat="44.92602" lon="5.41931">
        <ele>1029.65625</ele>
        <time>2019-10-15T10:58:42Z</time>
      </trkpt>
      <trkpt lat="44.92586" lon="5.41914">
        <ele>1032.53125</ele>
        <time>2019-10-15T10:58:47Z</time>
      </trkpt>
      <trkpt lat="44.92537" lon="5.41893">
        <ele>1034.236938</ele>
        <time>2019-10-15T10:58:59Z</time>
      </trkpt>
      <trkpt lat="44.92524" lon="5.41883">
        <ele>1036.043091</ele>
        <time>2019-10-15T10:59:02Z</time>
      </trkpt>
      <trkpt lat="44.92508" lon="5.41864">
        <ele>1039.821899</ele>
        <time>2019-10-15T10:59:07Z</time>
      </trkpt>
      <trkpt lat="44.92467" lon="5.41841">
        <ele>1042.724976</ele>
        <time>2019-10-15T10:59:18Z</time>
      </trkpt>
      <trkpt lat="44.92457" lon="5.41829">
        <ele>1045.696533</ele>
        <time>2019-10-15T10:59:21Z</time>
      </trkpt>
      <trkpt lat="44.92453" lon="5.41832">
        <ele>1044.550293</ele>
        <time>2019-10-15T10:59:22Z</time>
      </trkpt>
      <trkpt lat="44.92455" lon="5.41826">
        <ele>1046.47998</ele>
        <time>2019-10-15T10:59:23Z</time>
      </trkpt>
      <trkpt lat="44.92451" lon="5.41831">
        <ele>1044.717285</ele>
        <time>2019-10-15T10:59:24Z</time>
      </trkpt>
      <trkpt lat="44.92365" lon="5.41815">
        <ele>1048.747925</ele>
        <time>2019-10-15T10:59:44Z</time>
      </trkpt>
      <trkpt lat="44.92346" lon="5.41808">
        <ele>1052.077271</ele>
        <time>2019-10-15T10:59:49Z</time>
      </trkpt>
      <trkpt lat="44.92323" lon="5.41808">
        <ele>1053.879272</ele>
        <time>2019-10-15T10:59:54Z</time>
      </trkpt>
      <trkpt lat="44.923" lon="5.41814">
        <ele>1053.41626</ele>
        <time>2019-10-15T11:00:00Z</time>
      </trkpt>
      <trkpt lat="44.92284" lon="5.41807">
        <ele>1057.258545</ele>
        <time>2019-10-15T11:00:04Z</time>
      </trkpt>
      <trkpt lat="44.92288" lon="5.41801">
        <ele>1059.184204</ele>
        <time>2019-10-15T11:00:05Z</time>
      </trkpt>
      <trkpt lat="44.923" lon="5.41799">
        <ele>1058.990967</ele>
        <time>2019-10-15T11:00:08Z</time>
      </trkpt>
      <trkpt lat="44.92324" lon="5.41787">
        <ele>1061.40564</ele>
        <time>2019-10-15T11:00:14Z</time>
      </trkpt>
      <trkpt lat="44.92343" lon="5.41787">
        <ele>1059.775635</ele>
        <time>2019-10-15T11:00:18Z</time>
      </trkpt>
      <trkpt lat="44.92381" lon="5.41777">
        <ele>1061.438843</ele>
        <time>2019-10-15T11:00:27Z</time>
      </trkpt>
      <trkpt lat="44.92406" lon="5.41777">
        <ele>1060.880127</ele>
        <time>2019-10-15T11:00:33Z</time>
      </trkpt>
      <trkpt lat="44.92457" lon="5.41766">
        <ele>1065.340576</ele>
        <time>2019-10-15T11:00:45Z</time>
      </trkpt>
      <trkpt lat="44.92471" lon="5.41746">
        <ele>1073.073975</ele>
        <time>2019-10-15T11:00:50Z</time>
      </trkpt>
      <trkpt lat="44.92482" lon="5.41738">
        <ele>1075.987549</ele>
        <time>2019-10-15T11:00:53Z</time>
      </trkpt>
      <trkpt lat="44.92504" lon="5.41741">
        <ele>1075.967041</ele>
        <time>2019-10-15T11:00:58Z</time>
      </trkpt>
      <trkpt lat="44.92514" lon="5.41736">
        <ele>1078.171509</ele>
        <time>2019-10-15T11:01:00Z</time>
      </trkpt>
      <trkpt lat="44.92535" lon="5.41733">
        <ele>1080.533325</ele>
        <time>2019-10-15T11:01:05Z</time>
      </trkpt>
      <trkpt lat="44.92558" lon="5.4172">
        <ele>1085.817017</ele>
        <time>2019-10-15T11:01:11Z</time>
      </trkpt>
      <trkpt lat="44.92562" lon="5.41723">
        <ele>1085.366211</ele>
        <time>2019-10-15T11:01:12Z</time>
      </trkpt>
      <trkpt lat="44.92562" lon="5.41716">
        <ele>1086.79248</ele>
        <time>2019-10-15T11:01:13Z</time>
      </trkpt>
      <trkpt lat="44.92567" lon="5.4172">
        <ele>1086.544312</ele>
        <time>2019-10-15T11:01:15Z</time>
      </trkpt>
      <trkpt lat="44.92608" lon="5.41729">
        <ele>1088.678345</ele>
        <time>2019-10-15T11:01:24Z</time>
      </trkpt>
      <trkpt lat="44.92612" lon="5.41733">
        <ele>1088.234253</ele>
        <time>2019-10-15T11:01:25Z</time>
      </trkpt>
      <trkpt lat="44.92616" lon="5.41731">
        <ele>1089.223511</ele>
        <time>2019-10-15T11:01:26Z</time>
      </trkpt>
      <trkpt lat="44.92621" lon="5.41742">
        <ele>1087.257568</ele>
        <time>2019-10-15T11:01:29Z</time>
      </trkpt>
      <trkpt lat="44.92627" lon="5.4174">
        <ele>1088.513306</ele>
        <time>2019-10-15T11:01:30Z</time>
      </trkpt>
      <trkpt lat="44.9263" lon="5.41733">
        <ele>1090.530884</ele>
        <time>2019-10-15T11:01:31Z</time>
      </trkpt>
      <trkpt lat="44.92604" lon="5.41707">
        <ele>1091.815063</ele>
        <time>2019-10-15T11:01:39Z</time>
      </trkpt>
      <trkpt lat="44.92589" lon="5.41684">
        <ele>1092.877441</ele>
        <time>2019-10-15T11:01:44Z</time>
      </trkpt>
      <trkpt lat="44.92582" lon="5.41667">
        <ele>1094.359985</ele>
        <time>2019-10-15T11:01:47Z</time>
      </trkpt>
      <trkpt lat="44.9258" lon="5.41648">
        <ele>1095.571777</ele>
        <time>2019-10-15T11:01:50Z</time>
      </trkpt>
      <trkpt lat="44.92608" lon="5.41604">
        <ele>1097.782837</ele>
        <time>2019-10-15T11:02:00Z</time>
      </trkpt>
      <trkpt lat="44.92607" lon="5.41592">
        <ele>1097.531982</ele>
        <time>2019-10-15T11:02:02Z</time>
      </trkpt>
      <trkpt lat="44.92618" lon="5.41554">
        <ele>1096.864868</ele>
        <time>2019-10-15T11:02:09Z</time>
      </trkpt>
      <trkpt lat="44.92621" lon="5.41443">
        <ele>1097.377441</ele>
        <time>2019-10-15T11:02:27Z</time>
      </trkpt>
      <trkpt lat="44.9263" lon="5.41396">
        <ele>1096.709839</ele>
        <time>2019-10-15T11:02:36Z</time>
      </trkpt>
      <trkpt lat="44.92629" lon="5.41367">
        <ele>1096.387451</ele>
        <time>2019-10-15T11:02:40Z</time>
      </trkpt>
      <trkpt lat="44.92621" lon="5.41335">
        <ele>1095.522339</ele>
        <time>2019-10-15T11:02:46Z</time>
      </trkpt>
      <trkpt lat="44.92625" lon="5.4132">
        <ele>1094.55896</ele>
        <time>2019-10-15T11:02:49Z</time>
      </trkpt>
      <trkpt lat="44.9263" lon="5.41316">
        <ele>1094.417114</ele>
        <time>2019-10-15T11:02:50Z</time>
      </trkpt>
      <trkpt lat="44.92656" lon="5.41321">
        <ele>1096.104492</ele>
        <time>2019-10-15T11:02:56Z</time>
      </trkpt>
      <trkpt lat="44.92696" lon="5.41353">
        <ele>1099.338745</ele>
        <time>2019-10-15T11:03:07Z</time>
      </trkpt>
      <trkpt lat="44.9272" lon="5.41356">
        <ele>1100.786743</ele>
        <time>2019-10-15T11:03:12Z</time>
      </trkpt>
      <trkpt lat="44.92743" lon="5.41364">
        <ele>1101.730103</ele>
        <time>2019-10-15T11:03:18Z</time>
      </trkpt>
      <trkpt lat="44.92768" lon="5.41385">
        <ele>1102.432129</ele>
        <time>2019-10-15T11:03:25Z</time>
      </trkpt>
      <trkpt lat="44.92791" lon="5.41392">
        <ele>1104.046509</ele>
        <time>2019-10-15T11:03:30Z</time>
      </trkpt>
      <trkpt lat="44.92809" lon="5.41406">
        <ele>1105.278687</ele>
        <time>2019-10-15T11:03:35Z</time>
      </trkpt>
      <trkpt lat="44.92837" lon="5.41421">
        <ele>1107.667603</ele>
        <time>2019-10-15T11:03:42Z</time>
      </trkpt>
      <trkpt lat="44.92859" lon="5.41442">
        <ele>1110.291992</ele>
        <time>2019-10-15T11:03:48Z</time>
      </trkpt>
      <trkpt lat="44.92874" lon="5.41473">
        <ele>1113.161499</ele>
        <time>2019-10-15T11:03:54Z</time>
      </trkpt>
      <trkpt lat="44.92883" lon="5.41484">
        <ele>1114.837646</ele>
        <time>2019-10-15T11:03:57Z</time>
      </trkpt>
      <trkpt lat="44.92912" lon="5.41495">
        <ele>1119.232544</ele>
        <time>2019-10-15T11:04:04Z</time>
      </trkpt>
      <trkpt lat="44.92954" lon="5.41521">
        <ele>1125.434814</ele>
        <time>2019-10-15T11:04:15Z</time>
      </trkpt>
      <trkpt lat="44.92987" lon="5.41558">
        <ele>1131.668457</ele>
        <time>2019-10-15T11:04:25Z</time>
      </trkpt>
      <trkpt lat="44.92994" lon="5.4156">
        <ele>1132.587646</ele>
        <time>2019-10-15T11:04:26Z</time>
      </trkpt>
      <trkpt lat="44.93006" lon="5.41557">
        <ele>1132.823242</ele>
        <time>2019-10-15T11:04:29Z</time>
      </trkpt>
      <trkpt lat="44.9302" lon="5.4156">
        <ele>1133.625244</ele>
        <time>2019-10-15T11:04:33Z</time>
      </trkpt>
      <trkpt lat="44.93063" lon="5.41593">
        <ele>1137.106934</ele>
        <time>2019-10-15T11:04:44Z</time>
      </trkpt>
      <trkpt lat="44.93092" lon="5.41603">
        <ele>1137.81189</ele>
        <time>2019-10-15T11:04:51Z</time>
      </trkpt>
      <trkpt lat="44.9313" lon="5.41608">
        <ele>1137.7771</ele>
        <time>2019-10-15T11:05:00Z</time>
      </trkpt>
      <trkpt lat="44.93136" lon="5.41612">
        <ele>1137.905273</ele>
        <time>2019-10-15T11:05:02Z</time>
      </trkpt>
      <trkpt lat="44.93162" lon="5.41604">
        <ele>1138.407715</ele>
        <time>2019-10-15T11:05:08Z</time>
      </trkpt>
      <trkpt lat="44.93182" lon="5.41613">
        <ele>1138.245483</ele>
        <time>2019-10-15T11:05:13Z</time>
      </trkpt>
      <trkpt lat="44.93208" lon="5.41617">
        <ele>1137.464722</ele>
        <time>2019-10-15T11:05:19Z</time>
      </trkpt>
      <trkpt lat="44.9321" lon="5.41536">
        <ele>1144.436646</ele>
        <time>2019-10-15T11:05:32Z</time>
      </trkpt>
      <trkpt lat="44.93233" lon="5.41464">
        <ele>1152.852173</ele>
        <time>2019-10-15T11:05:45Z</time>
      </trkpt>
      <trkpt lat="44.93229" lon="5.41453">
        <ele>1153.810547</ele>
        <time>2019-10-15T11:05:47Z</time>
      </trkpt>
      <trkpt lat="44.93238" lon="5.41413">
        <ele>1159.101807</ele>
        <time>2019-10-15T11:05:54Z</time>
      </trkpt>
      <trkpt lat="44.93243" lon="5.41352">
        <ele>1166.508545</ele>
        <time>2019-10-15T11:06:04Z</time>
      </trkpt>
      <trkpt lat="44.93281" lon="5.41286">
        <ele>1177.30127</ele>
        <time>2019-10-15T11:06:19Z</time>
      </trkpt>
      <trkpt lat="44.93297" lon="5.41268">
        <ele>1179.918701</ele>
        <time>2019-10-15T11:06:23Z</time>
      </trkpt>
      <trkpt lat="44.93299" lon="5.4126">
        <ele>1180.501221</ele>
        <time>2019-10-15T11:06:25Z</time>
      </trkpt>
      <trkpt lat="44.93325" lon="5.41216">
        <ele>1185.163696</ele>
        <time>2019-10-15T11:06:34Z</time>
      </trkpt>
      <trkpt lat="44.93347" lon="5.41196">
        <ele>1187.601196</ele>
        <time>2019-10-15T11:06:40Z</time>
      </trkpt>
      <trkpt lat="44.93356" lon="5.41175">
        <ele>1189.66272</ele>
        <time>2019-10-15T11:06:44Z</time>
      </trkpt>
      <trkpt lat="44.93358" lon="5.41149">
        <ele>1191.746094</ele>
        <time>2019-10-15T11:06:49Z</time>
      </trkpt>
      <trkpt lat="44.93363" lon="5.41129">
        <ele>1193.67749</ele>
        <time>2019-10-15T11:06:52Z</time>
      </trkpt>
      <trkpt lat="44.93392" lon="5.41069">
        <ele>1199.36731</ele>
        <time>2019-10-15T11:07:04Z</time>
      </trkpt>
      <trkpt lat="44.934" lon="5.41036">
        <ele>1200.689941</ele>
        <time>2019-10-15T11:07:10Z</time>
      </trkpt>
      <trkpt lat="44.9341" lon="5.41015">
        <ele>1201.579956</ele>
        <time>2019-10-15T11:07:14Z</time>
      </trkpt>
      <trkpt lat="44.93438" lon="5.40988">
        <ele>1202.449219</ele>
        <time>2019-10-15T11:07:22Z</time>
      </trkpt>
      <trkpt lat="44.93454" lon="5.40982">
        <ele>1202.470215</ele>
        <time>2019-10-15T11:07:26Z</time>
      </trkpt>
      <trkpt lat="44.93465" lon="5.40973">
        <ele>1202.442139</ele>
        <time>2019-10-15T11:07:29Z</time>
      </trkpt>
      <trkpt lat="44.93473" lon="5.40975">
        <ele>1202.152466</ele>
        <time>2019-10-15T11:07:31Z</time>
      </trkpt>
      <trkpt lat="44.93492" lon="5.40945">
        <ele>1202.345581</ele>
        <time>2019-10-15T11:07:38Z</time>
      </trkpt>
      <trkpt lat="44.93513" lon="5.40937">
        <ele>1202</ele>
        <time>2019-10-15T11:07:43Z</time>
      </trkpt>
      <trkpt lat="44.93527" lon="5.40927">
        <ele>1202</ele>
        <time>2019-10-15T11:07:46Z</time>
      </trkpt>
      <trkpt lat="44.9355" lon="5.4092">
        <ele>1202</ele>
        <time>2019-10-15T11:07:52Z</time>
      </trkpt>
      <trkpt lat="44.93556" lon="5.40922">
        <ele>1202.140015</ele>
        <time>2019-10-15T11:07:53Z</time>
      </trkpt>
      <trkpt lat="44.93559" lon="5.40929">
        <ele>1202.285034</ele>
        <time>2019-10-15T11:07:55Z</time>
      </trkpt>
      <trkpt lat="44.93564" lon="5.40931">
        <ele>1202.51001</ele>
        <time>2019-10-15T11:07:56Z</time>
      </trkpt>
      <trkpt lat="44.93596" lon="5.41017">
        <ele>1198.82959</ele>
        <time>2019-10-15T11:08:12Z</time>
      </trkpt>
      <trkpt lat="44.936" lon="5.41042">
        <ele>1196.221802</ele>
        <time>2019-10-15T11:08:16Z</time>
      </trkpt>
      <trkpt lat="44.93607" lon="5.41049">
        <ele>1195.175903</ele>
        <time>2019-10-15T11:08:18Z</time>
      </trkpt>
      <trkpt lat="44.93616" lon="5.41067">
        <ele>1192.861572</ele>
        <time>2019-10-15T11:08:22Z</time>
      </trkpt>
      <trkpt lat="44.93645" lon="5.41077">
        <ele>1190.175415</ele>
        <time>2019-10-15T11:08:29Z</time>
      </trkpt>
      <trkpt lat="44.93662" lon="5.41078">
        <ele>1189.310913</ele>
        <time>2019-10-15T11:08:33Z</time>
      </trkpt>
      <trkpt lat="44.93685" lon="5.41085">
        <ele>1187.965332</ele>
        <time>2019-10-15T11:08:38Z</time>
      </trkpt>
      <trkpt lat="44.93705" lon="5.41098">
        <ele>1188.146729</ele>
        <time>2019-10-15T11:08:43Z</time>
      </trkpt>
      <trkpt lat="44.93729" lon="5.41075">
        <ele>1189.326416</ele>
        <time>2019-10-15T11:08:50Z</time>
      </trkpt>
      <trkpt lat="44.93743" lon="5.41046">
        <ele>1188.228271</ele>
        <time>2019-10-15T11:08:56Z</time>
      </trkpt>
      <trkpt lat="44.93761" lon="5.41031">
        <ele>1187.923462</ele>
        <time>2019-10-15T11:09:01Z</time>
      </trkpt>
      <trkpt lat="44.93772" lon="5.41011">
        <ele>1186.91626</ele>
        <time>2019-10-15T11:09:05Z</time>
      </trkpt>
      <trkpt lat="44.93783" lon="5.40971">
        <ele>1184.98938</ele>
        <time>2019-10-15T11:09:12Z</time>
      </trkpt>
      <trkpt lat="44.93781" lon="5.40944">
        <ele>1185.577881</ele>
        <time>2019-10-15T11:09:17Z</time>
      </trkpt>
      <trkpt lat="44.93787" lon="5.40916">
        <ele>1187.550049</ele>
        <time>2019-10-15T11:09:22Z</time>
      </trkpt>
      <trkpt lat="44.93797" lon="5.40911">
        <ele>1187.652466</ele>
        <time>2019-10-15T11:09:24Z</time>
      </trkpt>
      <trkpt lat="44.93806" lon="5.40901">
        <ele>1187.755615</ele>
        <time>2019-10-15T11:09:27Z</time>
      </trkpt>
      <trkpt lat="44.93833" lon="5.40887">
        <ele>1188.627319</ele>
        <time>2019-10-15T11:09:34Z</time>
      </trkpt>
      <trkpt lat="44.93852" lon="5.40891">
        <ele>1188.913696</ele>
        <time>2019-10-15T11:09:38Z</time>
      </trkpt>
      <trkpt lat="44.93892" lon="5.40882">
        <ele>1190.567993</ele>
        <time>2019-10-15T11:09:47Z</time>
      </trkpt>
      <trkpt lat="44.93899" lon="5.40867">
        <ele>1191.130615</ele>
        <time>2019-10-15T11:09:50Z</time>
      </trkpt>
      <trkpt lat="44.93905" lon="5.40839">
        <ele>1192.129761</ele>
        <time>2019-10-15T11:09:55Z</time>
      </trkpt>
      <trkpt lat="44.93907" lon="5.40814">
        <ele>1194.688232</ele>
        <time>2019-10-15T11:09:59Z</time>
      </trkpt>
      <trkpt lat="44.93916" lon="5.40769">
        <ele>1199.041748</ele>
        <time>2019-10-15T11:10:07Z</time>
      </trkpt>
      <trkpt lat="44.93923" lon="5.40759">
        <ele>1199.578491</ele>
        <time>2019-10-15T11:10:10Z</time>
      </trkpt>
      <trkpt lat="44.93944" lon="5.40747">
        <ele>1199.177979</ele>
        <time>2019-10-15T11:10:15Z</time>
      </trkpt>
      <trkpt lat="44.93969" lon="5.40722">
        <ele>1199.067627</ele>
        <time>2019-10-15T11:10:22Z</time>
      </trkpt>
      <trkpt lat="44.93981" lon="5.40719">
        <ele>1197.732544</ele>
        <time>2019-10-15T11:10:25Z</time>
      </trkpt>
      <trkpt lat="44.93995" lon="5.40697">
        <ele>1196.990723</ele>
        <time>2019-10-15T11:10:30Z</time>
      </trkpt>
      <trkpt lat="44.94012" lon="5.40686">
        <ele>1194.618286</ele>
        <time>2019-10-15T11:10:34Z</time>
      </trkpt>
      <trkpt lat="44.94024" lon="5.40673">
        <ele>1192.44043</ele>
        <time>2019-10-15T11:10:38Z</time>
      </trkpt>
      <trkpt lat="44.94051" lon="5.40659">
        <ele>1185.921631</ele>
        <time>2019-10-15T11:10:44Z</time>
      </trkpt>
      <trkpt lat="44.94084" lon="5.40616">
        <ele>1178.293701</ele>
        <time>2019-10-15T11:10:55Z</time>
      </trkpt>
      <trkpt lat="44.94101" lon="5.40614">
        <ele>1176.175049</ele>
        <time>2019-10-15T11:10:59Z</time>
      </trkpt>
      <trkpt lat="44.94128" lon="5.40589">
        <ele>1172.829346</ele>
        <time>2019-10-15T11:11:06Z</time>
      </trkpt>
      <trkpt lat="44.94145" lon="5.40555">
        <ele>1169.438599</ele>
        <time>2019-10-15T11:11:13Z</time>
      </trkpt>
      <trkpt lat="44.94155" lon="5.40515">
        <ele>1166.903687</ele>
        <time>2019-10-15T11:11:20Z</time>
      </trkpt>
      <trkpt lat="44.94179" lon="5.4048">
        <ele>1163.956299</ele>
        <time>2019-10-15T11:11:28Z</time>
      </trkpt>
      <trkpt lat="44.94184" lon="5.40462">
        <ele>1160.037964</ele>
        <time>2019-10-15T11:11:32Z</time>
      </trkpt>
      <trkpt lat="44.94192" lon="5.40456">
        <ele>1157.587402</ele>
        <time>2019-10-15T11:11:34Z</time>
      </trkpt>
      <trkpt lat="44.94191" lon="5.40443">
        <ele>1154.536377</ele>
        <time>2019-10-15T11:11:36Z</time>
      </trkpt>
      <trkpt lat="44.94204" lon="5.4038">
        <ele>1140.26416</ele>
        <time>2019-10-15T11:11:47Z</time>
      </trkpt>
      <trkpt lat="44.94194" lon="5.40345">
        <ele>1131.846802</ele>
        <time>2019-10-15T11:11:53Z</time>
      </trkpt>
      <trkpt lat="44.94191" lon="5.40314">
        <ele>1125.542236</ele>
        <time>2019-10-15T11:11:58Z</time>
      </trkpt>
      <trkpt lat="44.94202" lon="5.40289">
        <ele>1118.545288</ele>
        <time>2019-10-15T11:12:03Z</time>
      </trkpt>
      <trkpt lat="44.94203" lon="5.40266">
        <ele>1114.632446</ele>
        <time>2019-10-15T11:12:07Z</time>
      </trkpt>
      <trkpt lat="44.94194" lon="5.40238">
        <ele>1110.686768</ele>
        <time>2019-10-15T11:12:12Z</time>
      </trkpt>
      <trkpt lat="44.94191" lon="5.40215">
        <ele>1107.690063</ele>
        <time>2019-10-15T11:12:16Z</time>
      </trkpt>
      <trkpt lat="44.94203" lon="5.40207">
        <ele>1104.476563</ele>
        <time>2019-10-15T11:12:19Z</time>
      </trkpt>
      <trkpt lat="44.94224" lon="5.40155">
        <ele>1099.609985</ele>
        <time>2019-10-15T11:12:29Z</time>
      </trkpt>
      <trkpt lat="44.94233" lon="5.40107">
        <ele>1091.198364</ele>
        <time>2019-10-15T11:12:37Z</time>
      </trkpt>
      <trkpt lat="44.9424" lon="5.40092">
        <ele>1088.814941</ele>
        <time>2019-10-15T11:12:40Z</time>
      </trkpt>
      <trkpt lat="44.94303" lon="5.40016">
        <ele>1077.88623</ele>
        <time>2019-10-15T11:12:59Z</time>
      </trkpt>
      <trkpt lat="44.94325" lon="5.4">
        <ele>1075.154785</ele>
        <time>2019-10-15T11:13:05Z</time>
      </trkpt>
      <trkpt lat="44.94384" lon="5.39967">
        <ele>1067.589966</ele>
        <time>2019-10-15T11:13:20Z</time>
      </trkpt>
      <trkpt lat="44.9439" lon="5.39959">
        <ele>1066.003784</ele>
        <time>2019-10-15T11:13:22Z</time>
      </trkpt>
      <trkpt lat="44.94396" lon="5.39925">
        <ele>1059.69873</ele>
        <time>2019-10-15T11:13:28Z</time>
      </trkpt>
      <trkpt lat="44.94392" lon="5.399">
        <ele>1056.609375</ele>
        <time>2019-10-15T11:13:32Z</time>
      </trkpt>
      <trkpt lat="44.94367" lon="5.3985">
        <ele>1049.291626</ele>
        <time>2019-10-15T11:13:42Z</time>
      </trkpt>
      <trkpt lat="44.94365" lon="5.39833">
        <ele>1046.626831</ele>
        <time>2019-10-15T11:13:45Z</time>
      </trkpt>
      <trkpt lat="44.94352" lon="5.39811">
        <ele>1042.036255</ele>
        <time>2019-10-15T11:13:50Z</time>
      </trkpt>
      <trkpt lat="44.94348" lon="5.39796">
        <ele>1039.122314</ele>
        <time>2019-10-15T11:13:52Z</time>
      </trkpt>
      <trkpt lat="44.94346" lon="5.39764">
        <ele>1035.92395</ele>
        <time>2019-10-15T11:13:58Z</time>
      </trkpt>
      <trkpt lat="44.94362" lon="5.39705">
        <ele>1030.560181</ele>
        <time>2019-10-15T11:14:08Z</time>
      </trkpt>
      <trkpt lat="44.94361" lon="5.39688">
        <ele>1029.392212</ele>
        <time>2019-10-15T11:14:11Z</time>
      </trkpt>
      <trkpt lat="44.94365" lon="5.39665">
        <ele>1027.202515</ele>
        <time>2019-10-15T11:14:15Z</time>
      </trkpt>
      <trkpt lat="44.94359" lon="5.39633">
        <ele>1023.221252</ele>
        <time>2019-10-15T11:14:20Z</time>
      </trkpt>
      <trkpt lat="44.94348" lon="5.39611">
        <ele>1021.894653</ele>
        <time>2019-10-15T11:14:25Z</time>
      </trkpt>
      <trkpt lat="44.94326" lon="5.3959">
        <ele>1020.915283</ele>
        <time>2019-10-15T11:14:31Z</time>
      </trkpt>
      <trkpt lat="44.94321" lon="5.39576">
        <ele>1017.323425</ele>
        <time>2019-10-15T11:14:34Z</time>
      </trkpt>
      <trkpt lat="44.94307" lon="5.39563">
        <ele>1014.396973</ele>
        <time>2019-10-15T11:14:38Z</time>
      </trkpt>
      <trkpt lat="44.94268" lon="5.39555">
        <ele>1009.034912</ele>
        <time>2019-10-15T11:14:47Z</time>
      </trkpt>
      <trkpt lat="44.94223" lon="5.39564">
        <ele>1006.065247</ele>
        <time>2019-10-15T11:14:57Z</time>
      </trkpt>
      <trkpt lat="44.9419" lon="5.39565">
        <ele>1001.281921</ele>
        <time>2019-10-15T11:15:05Z</time>
      </trkpt>
      <trkpt lat="44.94156" lon="5.39559">
        <ele>995.48584</ele>
        <time>2019-10-15T11:15:13Z</time>
      </trkpt>
      <trkpt lat="44.94116" lon="5.39541">
        <ele>988.546509</ele>
        <time>2019-10-15T11:15:23Z</time>
      </trkpt>
      <trkpt lat="44.94118" lon="5.39533">
        <ele>987.308777</ele>
        <time>2019-10-15T11:15:24Z</time>
      </trkpt>
      <trkpt lat="44.94165" lon="5.39512">
        <ele>985.471313</ele>
        <time>2019-10-15T11:15:36Z</time>
      </trkpt>
      <trkpt lat="44.94193" lon="5.39491">
        <ele>981.613342</ele>
        <time>2019-10-15T11:15:43Z</time>
      </trkpt>
      <trkpt lat="44.94192" lon="5.39483">
        <ele>979.834656</ele>
        <time>2019-10-15T11:15:45Z</time>
      </trkpt>
      <trkpt lat="44.94183" lon="5.39474">
        <ele>977.978882</ele>
        <time>2019-10-15T11:15:47Z</time>
      </trkpt>
      <trkpt lat="44.94169" lon="5.39444">
        <ele>976.326904</ele>
        <time>2019-10-15T11:15:53Z</time>
      </trkpt>
      <trkpt lat="44.94167" lon="5.39421">
        <ele>975.244507</ele>
        <time>2019-10-15T11:15:57Z</time>
      </trkpt>
      <trkpt lat="44.94174" lon="5.39382">
        <ele>969.658203</ele>
        <time>2019-10-15T11:16:04Z</time>
      </trkpt>
      <trkpt lat="44.94175" lon="5.39361">
        <ele>968.052856</ele>
        <time>2019-10-15T11:16:07Z</time>
      </trkpt>
      <trkpt lat="44.94172" lon="5.39356">
        <ele>968.972046</ele>
        <time>2019-10-15T11:16:08Z</time>
      </trkpt>
      <trkpt lat="44.94176" lon="5.39359">
        <ele>967.50293</ele>
        <time>2019-10-15T11:16:09Z</time>
      </trkpt>
      <trkpt lat="44.94187" lon="5.39385">
        <ele>965.829651</ele>
        <time>2019-10-15T11:16:14Z</time>
      </trkpt>
      <trkpt lat="44.94196" lon="5.39389">
        <ele>964.404846</ele>
        <time>2019-10-15T11:16:16Z</time>
      </trkpt>
      <trkpt lat="44.94206" lon="5.39402">
        <ele>963.485352</ele>
        <time>2019-10-15T11:16:20Z</time>
      </trkpt>
      <trkpt lat="44.94246" lon="5.39375">
        <ele>957.865723</ele>
        <time>2019-10-15T11:16:30Z</time>
      </trkpt>
      <trkpt lat="44.94271" lon="5.39347">
        <ele>952.966125</ele>
        <time>2019-10-15T11:16:38Z</time>
      </trkpt>
      <trkpt lat="44.94295" lon="5.39326">
        <ele>949.875488</ele>
        <time>2019-10-15T11:16:44Z</time>
      </trkpt>
      <trkpt lat="44.94309" lon="5.39328">
        <ele>949.2099</ele>
        <time>2019-10-15T11:16:47Z</time>
      </trkpt>
      <trkpt lat="44.94341" lon="5.39314">
        <ele>946.01123</ele>
        <time>2019-10-15T11:16:55Z</time>
      </trkpt>
      <trkpt lat="44.94375" lon="5.39307">
        <ele>943.623718</ele>
        <time>2019-10-15T11:17:03Z</time>
      </trkpt>
      <trkpt lat="44.94401" lon="5.39313">
        <ele>942.833069</ele>
        <time>2019-10-15T11:17:09Z</time>
      </trkpt>
      <trkpt lat="44.9441" lon="5.3931">
        <ele>941.875122</ele>
        <time>2019-10-15T11:17:12Z</time>
      </trkpt>
      <trkpt lat="44.94423" lon="5.39312">
        <ele>941.112732</ele>
        <time>2019-10-15T11:17:15Z</time>
      </trkpt>
      <trkpt lat="44.94441" lon="5.39323">
        <ele>940.71283</ele>
        <time>2019-10-15T11:17:19Z</time>
      </trkpt>
      <trkpt lat="44.94503" lon="5.39374">
        <ele>938.381165</ele>
        <time>2019-10-15T11:17:36Z</time>
      </trkpt>
      <trkpt lat="44.94572" lon="5.39437">
        <ele>933.970398</ele>
        <time>2019-10-15T11:17:55Z</time>
      </trkpt>
      <trkpt lat="44.9462" lon="5.39501">
        <ele>934.510132</ele>
        <time>2019-10-15T11:18:11Z</time>
      </trkpt>
      <trkpt lat="44.9466" lon="5.39538">
        <ele>935.085388</ele>
        <time>2019-10-15T11:18:22Z</time>
      </trkpt>
      <trkpt lat="44.94671" lon="5.39544">
        <ele>934.855225</ele>
        <time>2019-10-15T11:18:25Z</time>
      </trkpt>
      <trkpt lat="44.94673" lon="5.3955">
        <ele>934.863525</ele>
        <time>2019-10-15T11:18:26Z</time>
      </trkpt>
      <trkpt lat="44.94696" lon="5.3953">
        <ele>934.591431</ele>
        <time>2019-10-15T11:18:32Z</time>
      </trkpt>
      <trkpt lat="44.94799" lon="5.39492">
        <ele>934.10498</ele>
        <time>2019-10-15T11:18:57Z</time>
      </trkpt>
      <trkpt lat="44.94837" lon="5.39466">
        <ele>931.600037</ele>
        <time>2019-10-15T11:19:07Z</time>
      </trkpt>
      <trkpt lat="44.94856" lon="5.39473">
        <ele>928.96991</ele>
        <time>2019-10-15T11:19:11Z</time>
      </trkpt>
      <trkpt lat="44.94851" lon="5.39452">
        <ele>930.640015</ele>
        <time>2019-10-15T11:19:15Z</time>
      </trkpt>
      <trkpt lat="44.94851" lon="5.39441">
        <ele>931.201782</ele>
        <time>2019-10-15T11:19:17Z</time>
      </trkpt>
      <trkpt lat="44.94845" lon="5.39421">
        <ele>933.493774</ele>
        <time>2019-10-15T11:19:20Z</time>
      </trkpt>
      <trkpt lat="44.94846" lon="5.39414">
        <ele>933.945007</ele>
        <time>2019-10-15T11:19:22Z</time>
      </trkpt>
      <trkpt lat="44.94888" lon="5.39326">
        <ele>933.262207</ele>
        <time>2019-10-15T11:19:39Z</time>
      </trkpt>
      <trkpt lat="44.94899" lon="5.39288">
        <ele>934.497986</ele>
        <time>2019-10-15T11:19:46Z</time>
      </trkpt>
      <trkpt lat="44.94919" lon="5.39239">
        <ele>935.637573</ele>
        <time>2019-10-15T11:19:55Z</time>
      </trkpt>
      <trkpt lat="44.94923" lon="5.39218">
        <ele>935.743408</ele>
        <time>2019-10-15T11:19:59Z</time>
      </trkpt>
      <trkpt lat="44.9496" lon="5.39171">
        <ele>932.353882</ele>
        <time>2019-10-15T11:20:11Z</time>
      </trkpt>
      <trkpt lat="44.94954" lon="5.39143">
        <ele>932.352173</ele>
        <time>2019-10-15T11:20:15Z</time>
      </trkpt>
      <trkpt lat="44.94956" lon="5.39127">
        <ele>931.678467</ele>
        <time>2019-10-15T11:20:18Z</time>
      </trkpt>
      <trkpt lat="44.94962" lon="5.39117">
        <ele>930.406738</ele>
        <time>2019-10-15T11:20:20Z</time>
      </trkpt>
      <trkpt lat="44.94969" lon="5.39112">
        <ele>929.425293</ele>
        <time>2019-10-15T11:20:22Z</time>
      </trkpt>
      <trkpt lat="44.94982" lon="5.39116">
        <ele>928.362244</ele>
        <time>2019-10-15T11:20:25Z</time>
      </trkpt>
      <trkpt lat="44.94995" lon="5.39108">
        <ele>926.959351</ele>
        <time>2019-10-15T11:20:28Z</time>
      </trkpt>
      <trkpt lat="44.95007" lon="5.39091">
        <ele>925.819946</ele>
        <time>2019-10-15T11:20:32Z</time>
      </trkpt>
      <trkpt lat="44.95036" lon="5.39071">
        <ele>924.27063</ele>
        <time>2019-10-15T11:20:40Z</time>
      </trkpt>
      <trkpt lat="44.95055" lon="5.39064">
        <ele>923.534973</ele>
        <time>2019-10-15T11:20:45Z</time>
      </trkpt>
      <trkpt lat="44.95066" lon="5.39069">
        <ele>923.012085</ele>
        <time>2019-10-15T11:20:47Z</time>
      </trkpt>
      <trkpt lat="44.95082" lon="5.39086">
        <ele>921.550415</ele>
        <time>2019-10-15T11:20:52Z</time>
      </trkpt>
      <trkpt lat="44.95083" lon="5.39093">
        <ele>921.177795</ele>
        <time>2019-10-15T11:20:53Z</time>
      </trkpt>
      <trkpt lat="44.95098" lon="5.39112">
        <ele>919.936401</ele>
        <time>2019-10-15T11:20:58Z</time>
      </trkpt>
      <trkpt lat="44.9511" lon="5.3914">
        <ele>919.456299</ele>
        <time>2019-10-15T11:21:03Z</time>
      </trkpt>
      <trkpt lat="44.95109" lon="5.39149">
        <ele>919.356262</ele>
        <time>2019-10-15T11:21:05Z</time>
      </trkpt>
      <trkpt lat="44.95115" lon="5.39188">
        <ele>919.581116</ele>
        <time>2019-10-15T11:21:11Z</time>
      </trkpt>
      <trkpt lat="44.95119" lon="5.39248">
        <ele>919.280029</ele>
        <time>2019-10-15T11:21:21Z</time>
      </trkpt>
      <trkpt lat="44.95116" lon="5.39297">
        <ele>918.062744</ele>
        <time>2019-10-15T11:21:29Z</time>
      </trkpt>
      <trkpt lat="44.95095" lon="5.39357">
        <ele>913.126953</ele>
        <time>2019-10-15T11:21:41Z</time>
      </trkpt>
      <trkpt lat="44.95085" lon="5.39376">
        <ele>909.799194</ele>
        <time>2019-10-15T11:21:44Z</time>
      </trkpt>
      <trkpt lat="44.95078" lon="5.39427">
        <ele>906.843933</ele>
        <time>2019-10-15T11:21:53Z</time>
      </trkpt>
      <trkpt lat="44.95064" lon="5.39473">
        <ele>909.770996</ele>
        <time>2019-10-15T11:22:01Z</time>
      </trkpt>
      <trkpt lat="44.95048" lon="5.39513">
        <ele>912.441223</ele>
        <time>2019-10-15T11:22:09Z</time>
      </trkpt>
      <trkpt lat="44.95038" lon="5.39576">
        <ele>912.528076</ele>
        <time>2019-10-15T11:22:20Z</time>
      </trkpt>
      <trkpt lat="44.95037" lon="5.39627">
        <ele>909.051819</ele>
        <time>2019-10-15T11:22:28Z</time>
      </trkpt>
      <trkpt lat="44.95039" lon="5.39636">
        <ele>908.544128</ele>
        <time>2019-10-15T11:22:30Z</time>
      </trkpt>
      <trkpt lat="44.95047" lon="5.39647">
        <ele>907.620239</ele>
        <time>2019-10-15T11:22:32Z</time>
      </trkpt>
      <trkpt lat="44.95048" lon="5.39655">
        <ele>906.612793</ele>
        <time>2019-10-15T11:22:34Z</time>
      </trkpt>
      <trkpt lat="44.95058" lon="5.39669">
        <ele>904.970154</ele>
        <time>2019-10-15T11:22:37Z</time>
      </trkpt>
      <trkpt lat="44.9511" lon="5.39713">
        <ele>909.536682</ele>
        <time>2019-10-15T11:22:51Z</time>
      </trkpt>
      <trkpt lat="44.95116" lon="5.39734">
        <ele>907.47998</ele>
        <time>2019-10-15T11:22:55Z</time>
      </trkpt>
      <trkpt lat="44.95127" lon="5.39818">
        <ele>892.503235</ele>
        <time>2019-10-15T11:23:09Z</time>
      </trkpt>
      <trkpt lat="44.95133" lon="5.39831">
        <ele>890.140625</ele>
        <time>2019-10-15T11:23:11Z</time>
      </trkpt>
      <trkpt lat="44.95143" lon="5.39838">
        <ele>889.565979</ele>
        <time>2019-10-15T11:23:14Z</time>
      </trkpt>
      <trkpt lat="44.95178" lon="5.39843">
        <ele>889.937683</ele>
        <time>2019-10-15T11:23:22Z</time>
      </trkpt>
      <trkpt lat="44.95218" lon="5.39836">
        <ele>891.158447</ele>
        <time>2019-10-15T11:23:32Z</time>
      </trkpt>
      <trkpt lat="44.95242" lon="5.39815">
        <ele>898.456665</ele>
        <time>2019-10-15T11:23:38Z</time>
      </trkpt>
      <trkpt lat="44.95284" lon="5.39821">
        <ele>891.727478</ele>
        <time>2019-10-15T11:23:48Z</time>
      </trkpt>
      <trkpt lat="44.95289" lon="5.39825">
        <ele>889.451233</ele>
        <time>2019-10-15T11:23:50Z</time>
      </trkpt>
      <trkpt lat="44.9533" lon="5.3983">
        <ele>887.017212</ele>
        <time>2019-10-15T11:23:59Z</time>
      </trkpt>
      <trkpt lat="44.95338" lon="5.39838">
        <ele>884.100586</ele>
        <time>2019-10-15T11:24:01Z</time>
      </trkpt>
      <trkpt lat="44.95381" lon="5.39845">
        <ele>882.41333</ele>
        <time>2019-10-15T11:24:12Z</time>
      </trkpt>
      <trkpt lat="44.95423" lon="5.39845">
        <ele>884.099976</ele>
        <time>2019-10-15T11:24:21Z</time>
      </trkpt>
      <trkpt lat="44.9543" lon="5.39851">
        <ele>882.535034</ele>
        <time>2019-10-15T11:24:23Z</time>
      </trkpt>
      <trkpt lat="44.95457" lon="5.39861">
        <ele>881.92749</ele>
        <time>2019-10-15T11:24:30Z</time>
      </trkpt>
      <trkpt lat="44.955" lon="5.39892">
        <ele>878.692871</ele>
        <time>2019-10-15T11:24:41Z</time>
      </trkpt>
      <trkpt lat="44.95541" lon="5.39914">
        <ele>877.282227</ele>
        <time>2019-10-15T11:24:51Z</time>
      </trkpt>
      <trkpt lat="44.95555" lon="5.39925">
        <ele>875.894043</ele>
        <time>2019-10-15T11:24:55Z</time>
      </trkpt>
      <trkpt lat="44.95582" lon="5.39934">
        <ele>875.749878</ele>
        <time>2019-10-15T11:25:01Z</time>
      </trkpt>
      <trkpt lat="44.95599" lon="5.39933">
        <ele>877.19397</ele>
        <time>2019-10-15T11:25:05Z</time>
      </trkpt>
      <trkpt lat="44.95635" lon="5.39949">
        <ele>874.152466</ele>
        <time>2019-10-15T11:25:14Z</time>
      </trkpt>
      <trkpt lat="44.95683" lon="5.39954">
        <ele>873.872131</ele>
        <time>2019-10-15T11:25:26Z</time>
      </trkpt>
      <trkpt lat="44.95689" lon="5.39958">
        <ele>873.035645</ele>
        <time>2019-10-15T11:25:27Z</time>
      </trkpt>
      <trkpt lat="44.95713" lon="5.39959">
        <ele>872.504272</ele>
        <time>2019-10-15T11:25:33Z</time>
      </trkpt>
      <trkpt lat="44.95721" lon="5.39964">
        <ele>871.178406</ele>
        <time>2019-10-15T11:25:35Z</time>
      </trkpt>
      <trkpt lat="44.95701" lon="5.39981">
        <ele>867.82251</ele>
        <time>2019-10-15T11:25:40Z</time>
      </trkpt>
      <trkpt lat="44.95694" lon="5.39994">
        <ele>865.382629</ele>
        <time>2019-10-15T11:25:43Z</time>
      </trkpt>
      <trkpt lat="44.9568" lon="5.40087">
        <ele>854.748657</ele>
        <time>2019-10-15T11:25:59Z</time>
      </trkpt>
      <trkpt lat="44.95678" lon="5.40131">
        <ele>853.333801</ele>
        <time>2019-10-15T11:26:06Z</time>
      </trkpt>
      <trkpt lat="44.95685" lon="5.40135">
        <ele>853.145569</ele>
        <time>2019-10-15T11:26:08Z</time>
      </trkpt>
      <trkpt lat="44.95756" lon="5.40143">
        <ele>851.530029</ele>
        <time>2019-10-15T11:26:24Z</time>
      </trkpt>
      <trkpt lat="44.95971" lon="5.40137">
        <ele>845.83252</ele>
        <time>2019-10-15T11:27:15Z</time>
      </trkpt>
      <trkpt lat="44.96008" lon="5.40142">
        <ele>845.115112</ele>
        <time>2019-10-15T11:27:23Z</time>
      </trkpt>
      <trkpt lat="44.9607" lon="5.40139">
        <ele>844.554993</ele>
        <time>2019-10-15T11:27:38Z</time>
      </trkpt>
      <trkpt lat="44.96113" lon="5.40131">
        <ele>843.60498</ele>
        <time>2019-10-15T11:27:48Z</time>
      </trkpt>
      <trkpt lat="44.96183" lon="5.40133">
        <ele>841.094971</ele>
        <time>2019-10-15T11:28:04Z</time>
      </trkpt>
      <trkpt lat="44.96219" lon="5.40139">
        <ele>840.084534</ele>
        <time>2019-10-15T11:28:13Z</time>
      </trkpt>
      <trkpt lat="44.96245" lon="5.40154">
        <ele>839.872498</ele>
        <time>2019-10-15T11:28:19Z</time>
      </trkpt>
      <trkpt lat="44.96321" lon="5.40181">
        <ele>837.887512</ele>
        <time>2019-10-15T11:28:38Z</time>
      </trkpt>
      <trkpt lat="44.9636" lon="5.40185">
        <ele>837.077515</ele>
        <time>2019-10-15T11:28:47Z</time>
      </trkpt>
      <trkpt lat="44.9639" lon="5.40183">
        <ele>836.880005</ele>
        <time>2019-10-15T11:28:54Z</time>
      </trkpt>
      <trkpt lat="44.96418" lon="5.40175">
        <ele>836.719727</ele>
        <time>2019-10-15T11:29:00Z</time>
      </trkpt>
      <trkpt lat="44.96486" lon="5.40114">
        <ele>835.534973</ele>
        <time>2019-10-15T11:29:19Z</time>
      </trkpt>
      <trkpt lat="44.96498" lon="5.40107">
        <ele>835.294983</ele>
        <time>2019-10-15T11:29:22Z</time>
      </trkpt>
      <trkpt lat="44.9653" lon="5.401">
        <ele>835.011902</ele>
        <time>2019-10-15T11:29:30Z</time>
      </trkpt>
      <trkpt lat="44.96554" lon="5.40102">
        <ele>834.845032</ele>
        <time>2019-10-15T11:29:35Z</time>
      </trkpt>
      <trkpt lat="44.96596" lon="5.40123">
        <ele>834.315002</ele>
        <time>2019-10-15T11:29:46Z</time>
      </trkpt>
      <trkpt lat="44.96683" lon="5.40128">
        <ele>833.26001</ele>
        <time>2019-10-15T11:30:06Z</time>
      </trkpt>
      <trkpt lat="44.96723" lon="5.40124">
        <ele>832.275024</ele>
        <time>2019-10-15T11:30:15Z</time>
      </trkpt>
      <trkpt lat="44.96778" lon="5.40111">
        <ele>831.815125</ele>
        <time>2019-10-15T11:30:28Z</time>
      </trkpt>
      <trkpt lat="44.96819" lon="5.40108">
        <ele>830.932495</ele>
        <time>2019-10-15T11:30:38Z</time>
      </trkpt>
      <trkpt lat="44.96846" lon="5.401">
        <ele>830.337524</ele>
        <time>2019-10-15T11:30:45Z</time>
      </trkpt>
      <trkpt lat="44.96957" lon="5.40103">
        <ele>828.556274</ele>
        <time>2019-10-15T11:31:11Z</time>
      </trkpt>
      <trkpt lat="44.97049" lon="5.40119">
        <ele>826.973877</ele>
        <time>2019-10-15T11:31:32Z</time>
      </trkpt>
      <trkpt lat="44.97076" lon="5.40132">
        <ele>827.048279</ele>
        <time>2019-10-15T11:31:39Z</time>
      </trkpt>
      <trkpt lat="44.97091" lon="5.40132">
        <ele>826.905945</ele>
        <time>2019-10-15T11:31:42Z</time>
      </trkpt>
      <trkpt lat="44.97149" lon="5.40172">
        <ele>826.777527</ele>
        <time>2019-10-15T11:31:57Z</time>
      </trkpt>
      <trkpt lat="44.97262" lon="5.40241">
        <ele>826.803772</ele>
        <time>2019-10-15T11:32:26Z</time>
      </trkpt>
      <trkpt lat="44.97293" lon="5.40249">
        <ele>825.722534</ele>
        <time>2019-10-15T11:32:34Z</time>
      </trkpt>
      <trkpt lat="44.97361" lon="5.4029">
        <ele>827.140015</ele>
        <time>2019-10-15T11:32:51Z</time>
      </trkpt>
      <trkpt lat="44.97395" lon="5.40338">
        <ele>830.047424</ele>
        <time>2019-10-15T11:33:02Z</time>
      </trkpt>
      <trkpt lat="44.97421" lon="5.40384">
        <ele>832.935059</ele>
        <time>2019-10-15T11:33:12Z</time>
      </trkpt>
      <trkpt lat="44.97441" lon="5.40409">
        <ele>834.151733</ele>
        <time>2019-10-15T11:33:18Z</time>
      </trkpt>
      <trkpt lat="44.97475" lon="5.40439">
        <ele>836.143127</ele>
        <time>2019-10-15T11:33:27Z</time>
      </trkpt>
      <trkpt lat="44.97526" lon="5.40465">
        <ele>842.775513</ele>
        <time>2019-10-15T11:33:40Z</time>
      </trkpt>
      <trkpt lat="44.97539" lon="5.40453">
        <ele>844.245361</ele>
        <time>2019-10-15T11:33:44Z</time>
      </trkpt>
      <trkpt lat="44.97556" lon="5.40421">
        <ele>845.290894</ele>
        <time>2019-10-15T11:33:50Z</time>
      </trkpt>
      <trkpt lat="44.97587" lon="5.40409">
        <ele>848.755005</ele>
        <time>2019-10-15T11:33:58Z</time>
      </trkpt>
      <trkpt lat="44.9772" lon="5.40422">
        <ele>863.012756</ele>
        <time>2019-10-15T11:34:29Z</time>
      </trkpt>
      <trkpt lat="44.978" lon="5.40443">
        <ele>868.679749</ele>
        <time>2019-10-15T11:34:48Z</time>
      </trkpt>
      <trkpt lat="44.9787" lon="5.40446">
        <ele>870.882629</ele>
        <time>2019-10-15T11:35:05Z</time>
      </trkpt>
      <trkpt lat="44.97897" lon="5.40454">
        <ele>872.167786</ele>
        <time>2019-10-15T11:35:11Z</time>
      </trkpt>
      <trkpt lat="44.97918" lon="5.40465">
        <ele>873.120911</ele>
        <time>2019-10-15T11:35:16Z</time>
      </trkpt>
      <trkpt lat="44.97992" lon="5.40531">
        <ele>876.406128</ele>
        <time>2019-10-15T11:35:37Z</time>
      </trkpt>
      <trkpt lat="44.98011" lon="5.40543">
        <ele>876.552307</ele>
        <time>2019-10-15T11:35:41Z</time>
      </trkpt>
      <trkpt lat="44.98042" lon="5.40571">
        <ele>876.913696</ele>
        <time>2019-10-15T11:35:50Z</time>
      </trkpt>
      <trkpt lat="44.98051" lon="5.40569">
        <ele>876.560181</ele>
        <time>2019-10-15T11:35:52Z</time>
      </trkpt>
      <trkpt lat="44.98088" lon="5.40603">
        <ele>876.871643</ele>
        <time>2019-10-15T11:36:03Z</time>
      </trkpt>
      <trkpt lat="44.98095" lon="5.40622">
        <ele>877.271423</ele>
        <time>2019-10-15T11:36:06Z</time>
      </trkpt>
      <trkpt lat="44.98097" lon="5.40646">
        <ele>877.523438</ele>
        <time>2019-10-15T11:36:10Z</time>
      </trkpt>
      <trkpt lat="44.98107" lon="5.40676">
        <ele>876.869995</ele>
        <time>2019-10-15T11:36:16Z</time>
      </trkpt>
      <trkpt lat="44.98102" lon="5.40675">
        <ele>877.265625</ele>
        <time>2019-10-15T11:36:17Z</time>
      </trkpt>
      <trkpt lat="44.98099" lon="5.40667">
        <ele>877.47699</ele>
        <time>2019-10-15T11:36:18Z</time>
      </trkpt>
      <trkpt lat="44.98063" lon="5.40636">
        <ele>879.197083</ele>
        <time>2019-10-15T11:36:28Z</time>
      </trkpt>
      <trkpt lat="44.98043" lon="5.40632">
        <ele>880.002502</ele>
        <time>2019-10-15T11:36:33Z</time>
      </trkpt>
      <trkpt lat="44.98006" lon="5.40608">
        <ele>880.212524</ele>
        <time>2019-10-15T11:36:42Z</time>
      </trkpt>
      <trkpt lat="44.98001" lon="5.40597">
        <ele>879.654968</ele>
        <time>2019-10-15T11:36:45Z</time>
      </trkpt>
      <trkpt lat="44.9797" lon="5.4058">
        <ele>879.390015</ele>
        <time>2019-10-15T11:36:52Z</time>
      </trkpt>
      <trkpt lat="44.97941" lon="5.40576">
        <ele>879.887512</ele>
        <time>2019-10-15T11:36:59Z</time>
      </trkpt>
      <trkpt lat="44.97908" lon="5.40562">
        <ele>879.354248</ele>
        <time>2019-10-15T11:37:07Z</time>
      </trkpt>
      <trkpt lat="44.97873" lon="5.40564">
        <ele>879.372925</ele>
        <time>2019-10-15T11:37:15Z</time>
      </trkpt>
      <trkpt lat="44.97852" lon="5.4057">
        <ele>879.249573</ele>
        <time>2019-10-15T11:37:20Z</time>
      </trkpt>
      <trkpt lat="44.97839" lon="5.40566">
        <ele>879.006714</ele>
        <time>2019-10-15T11:37:23Z</time>
      </trkpt>
      <trkpt lat="44.97831" lon="5.40572">
        <ele>878.191589</ele>
        <time>2019-10-15T11:37:26Z</time>
      </trkpt>
      <trkpt lat="44.97831" lon="5.40589">
        <ele>878.118958</ele>
        <time>2019-10-15T11:37:28Z</time>
      </trkpt>
      <trkpt lat="44.97843" lon="5.40624">
        <ele>878.960266</ele>
        <time>2019-10-15T11:37:35Z</time>
      </trkpt>
      <trkpt lat="44.97876" lon="5.40674">
        <ele>882.146851</ele>
        <time>2019-10-15T11:37:46Z</time>
      </trkpt>
      <trkpt lat="44.97882" lon="5.4074">
        <ele>884.219971</ele>
        <time>2019-10-15T11:37:57Z</time>
      </trkpt>
      <trkpt lat="44.97881" lon="5.40751">
        <ele>884.425598</ele>
        <time>2019-10-15T11:37:59Z</time>
      </trkpt>
      <trkpt lat="44.97885" lon="5.40777">
        <ele>885.504272</ele>
        <time>2019-10-15T11:38:03Z</time>
      </trkpt>
      <trkpt lat="44.97909" lon="5.40844">
        <ele>887.502319</ele>
        <time>2019-10-15T11:38:16Z</time>
      </trkpt>
      <trkpt lat="44.97905" lon="5.40855">
        <ele>887.585022</ele>
        <time>2019-10-15T11:38:18Z</time>
      </trkpt>
      <trkpt lat="44.97906" lon="5.40849">
        <ele>887.538269</ele>
        <time>2019-10-15T11:38:19Z</time>
      </trkpt>
      <trkpt lat="44.97914" lon="5.40881">
        <ele>887.161865</ele>
        <time>2019-10-15T11:38:25Z</time>
      </trkpt>
      <trkpt lat="44.97915" lon="5.40905">
        <ele>886.775452</ele>
        <time>2019-10-15T11:38:29Z</time>
      </trkpt>
      <trkpt lat="44.97919" lon="5.40925">
        <ele>886.15686</ele>
        <time>2019-10-15T11:38:32Z</time>
      </trkpt>
      <trkpt lat="44.97918" lon="5.41004">
        <ele>888.104187</ele>
        <time>2019-10-15T11:38:45Z</time>
      </trkpt>
      <trkpt lat="44.97923" lon="5.41042">
        <ele>890.391235</ele>
        <time>2019-10-15T11:38:51Z</time>
      </trkpt>
      <trkpt lat="44.97918" lon="5.41085">
        <ele>894.710022</ele>
        <time>2019-10-15T11:38:59Z</time>
      </trkpt>
      <trkpt lat="44.97926" lon="5.41173">
        <ele>905.039978</ele>
        <time>2019-10-15T11:39:13Z</time>
      </trkpt>
      <trkpt lat="44.97922" lon="5.41194">
        <ele>907.509827</ele>
        <time>2019-10-15T11:39:17Z</time>
      </trkpt>
      <trkpt lat="44.97912" lon="5.41204">
        <ele>908.992065</ele>
        <time>2019-10-15T11:39:20Z</time>
      </trkpt>
      <trkpt lat="44.97901" lon="5.41204">
        <ele>907.982483</ele>
        <time>2019-10-15T11:39:22Z</time>
      </trkpt>
      <trkpt lat="44.97875" lon="5.41214">
        <ele>906.73999</ele>
        <time>2019-10-15T11:39:29Z</time>
      </trkpt>
      <trkpt lat="44.9785" lon="5.41214">
        <ele>904.465942</ele>
        <time>2019-10-15T11:39:34Z</time>
      </trkpt>
      <trkpt lat="44.97757" lon="5.41246">
        <ele>902.955627</ele>
        <time>2019-10-15T11:39:57Z</time>
      </trkpt>
      <trkpt lat="44.9772" lon="5.41253">
        <ele>901.456421</ele>
        <time>2019-10-15T11:40:06Z</time>
      </trkpt>
      <trkpt lat="44.97651" lon="5.41247">
        <ele>896.608154</ele>
        <time>2019-10-15T11:40:22Z</time>
      </trkpt>
      <trkpt lat="44.97606" lon="5.41257">
        <ele>891.624268</ele>
        <time>2019-10-15T11:40:32Z</time>
      </trkpt>
      <trkpt lat="44.97568" lon="5.41256">
        <ele>885.959412</ele>
        <time>2019-10-15T11:40:41Z</time>
      </trkpt>
      <trkpt lat="44.97557" lon="5.41262">
        <ele>884.298096</ele>
        <time>2019-10-15T11:40:44Z</time>
      </trkpt>
      <trkpt lat="44.97555" lon="5.41273">
        <ele>883.790344</ele>
        <time>2019-10-15T11:40:46Z</time>
      </trkpt>
      <trkpt lat="44.97558" lon="5.41304">
        <ele>884.375793</ele>
        <time>2019-10-15T11:40:51Z</time>
      </trkpt>
      <trkpt lat="44.9755" lon="5.41326">
        <ele>884.319946</ele>
        <time>2019-10-15T11:40:55Z</time>
      </trkpt>
      <trkpt lat="44.97533" lon="5.41341">
        <ele>884.88031</ele>
        <time>2019-10-15T11:41:00Z</time>
      </trkpt>
      <trkpt lat="44.97507" lon="5.41347">
        <ele>885.735779</ele>
        <time>2019-10-15T11:41:06Z</time>
      </trkpt>
      <trkpt lat="44.9747" lon="5.41368">
        <ele>889.634155</ele>
        <time>2019-10-15T11:41:15Z</time>
      </trkpt>
      <trkpt lat="44.97433" lon="5.41363">
        <ele>888.717529</ele>
        <time>2019-10-15T11:41:24Z</time>
      </trkpt>
      <trkpt lat="44.97405" lon="5.41368">
        <ele>889.125427</ele>
        <time>2019-10-15T11:41:31Z</time>
      </trkpt>
      <trkpt lat="44.97346" lon="5.41369">
        <ele>889.503052</ele>
        <time>2019-10-15T11:41:44Z</time>
      </trkpt>
      <trkpt lat="44.97306" lon="5.41377">
        <ele>891.392151</ele>
        <time>2019-10-15T11:41:54Z</time>
      </trkpt>
      <trkpt lat="44.97254" lon="5.41372">
        <ele>893.513428</ele>
        <time>2019-10-15T11:42:06Z</time>
      </trkpt>
      <trkpt lat="44.9725" lon="5.41368">
        <ele>893.243591</ele>
        <time>2019-10-15T11:42:07Z</time>
      </trkpt>
      <trkpt lat="44.97245" lon="5.41372">
        <ele>894.112976</ele>
        <time>2019-10-15T11:42:09Z</time>
      </trkpt>
      <trkpt lat="44.97224" lon="5.41408">
        <ele>900.821899</ele>
        <time>2019-10-15T11:42:16Z</time>
      </trkpt>
      <trkpt lat="44.97174" lon="5.41463">
        <ele>903.748535</ele>
        <time>2019-10-15T11:42:31Z</time>
      </trkpt>
      <trkpt lat="44.97151" lon="5.41495">
        <ele>905.88501</ele>
        <time>2019-10-15T11:42:39Z</time>
      </trkpt>
      <trkpt lat="44.97144" lon="5.41499">
        <ele>906.164978</ele>
        <time>2019-10-15T11:42:40Z</time>
      </trkpt>
      <trkpt lat="44.9708" lon="5.41452">
        <ele>902.215759</ele>
        <time>2019-10-15T11:42:57Z</time>
      </trkpt>
      <trkpt lat="44.97041" lon="5.41443">
        <ele>901.212341</ele>
        <time>2019-10-15T11:43:06Z</time>
      </trkpt>
      <trkpt lat="44.97015" lon="5.41445">
        <ele>902.110046</ele>
        <time>2019-10-15T11:43:13Z</time>
      </trkpt>
      <trkpt lat="44.97004" lon="5.41458">
        <ele>902.990479</ele>
        <time>2019-10-15T11:43:16Z</time>
      </trkpt>
      <trkpt lat="44.96998" lon="5.41487">
        <ele>902.689453</ele>
        <time>2019-10-15T11:43:21Z</time>
      </trkpt>
      <trkpt lat="44.96993" lon="5.4149">
        <ele>902.342102</ele>
        <time>2019-10-15T11:43:22Z</time>
      </trkpt>
      <trkpt lat="44.96953" lon="5.41474">
        <ele>899.960144</ele>
        <time>2019-10-15T11:43:32Z</time>
      </trkpt>
      <trkpt lat="44.96944" lon="5.41463">
        <ele>899.472168</ele>
        <time>2019-10-15T11:43:35Z</time>
      </trkpt>
      <trkpt lat="44.96943" lon="5.41457">
        <ele>899.521179</ele>
        <time>2019-10-15T11:43:36Z</time>
      </trkpt>
      <trkpt lat="44.96948" lon="5.41435">
        <ele>899.776855</ele>
        <time>2019-10-15T11:43:40Z</time>
      </trkpt>
      <trkpt lat="44.96948" lon="5.414">
        <ele>899.2995</ele>
        <time>2019-10-15T11:43:45Z</time>
      </trkpt>
      <trkpt lat="44.96925" lon="5.41378">
        <ele>896.868591</ele>
        <time>2019-10-15T11:43:52Z</time>
      </trkpt>
      <trkpt lat="44.96914" lon="5.41375">
        <ele>895.903259</ele>
        <time>2019-10-15T11:43:54Z</time>
      </trkpt>
      <trkpt lat="44.96885" lon="5.41382">
        <ele>892.69751</ele>
        <time>2019-10-15T11:44:01Z</time>
      </trkpt>
      <trkpt lat="44.96867" lon="5.41382">
        <ele>890.392517</ele>
        <time>2019-10-15T11:44:06Z</time>
      </trkpt>
      <trkpt lat="44.9685" lon="5.41443">
        <ele>889.777527</ele>
        <time>2019-10-15T11:44:16Z</time>
      </trkpt>
      <trkpt lat="44.96843" lon="5.41458">
        <ele>889.25116</ele>
        <time>2019-10-15T11:44:19Z</time>
      </trkpt>
      <trkpt lat="44.96831" lon="5.41453">
        <ele>887.885803</ele>
        <time>2019-10-15T11:44:22Z</time>
      </trkpt>
      <trkpt lat="44.96826" lon="5.41457">
        <ele>887.421509</ele>
        <time>2019-10-15T11:44:24Z</time>
      </trkpt>
      <trkpt lat="44.96814" lon="5.41456">
        <ele>886.087524</ele>
        <time>2019-10-15T11:44:26Z</time>
      </trkpt>
      <trkpt lat="44.96807" lon="5.41476">
        <ele>885.696228</ele>
        <time>2019-10-15T11:44:30Z</time>
      </trkpt>
      <trkpt lat="44.96805" lon="5.41512">
        <ele>886.143677</ele>
        <time>2019-10-15T11:44:36Z</time>
      </trkpt>
      <trkpt lat="44.96791" lon="5.41545">
        <ele>885.418823</ele>
        <time>2019-10-15T11:44:42Z</time>
      </trkpt>
      <trkpt lat="44.96793" lon="5.41563">
        <ele>885.986389</ele>
        <time>2019-10-15T11:44:45Z</time>
      </trkpt>
      <trkpt lat="44.9679" lon="5.41569">
        <ele>885.903137</ele>
        <time>2019-10-15T11:44:47Z</time>
      </trkpt>
      <trkpt lat="44.96786" lon="5.41567">
        <ele>885.582336</ele>
        <time>2019-10-15T11:44:48Z</time>
      </trkpt>
      <trkpt lat="44.96775" lon="5.41502">
        <ele>882.704163</ele>
        <time>2019-10-15T11:44:59Z</time>
      </trkpt>
      <trkpt lat="44.96768" lon="5.415">
        <ele>882.029602</ele>
        <time>2019-10-15T11:45:00Z</time>
      </trkpt>
      <trkpt lat="44.96765" lon="5.41507">
        <ele>881.916809</ele>
        <time>2019-10-15T11:45:02Z</time>
      </trkpt>
      <trkpt lat="44.96764" lon="5.41536">
        <ele>882.93512</ele>
        <time>2019-10-15T11:45:07Z</time>
      </trkpt>
      <trkpt lat="44.9677" lon="5.41551">
        <ele>883.933411</ele>
        <time>2019-10-15T11:45:10Z</time>
      </trkpt>
    </trkseg>
  </trk>
</gpx>